UPS339 KSDF-OMDB
Flight info
| Callsign | UPS339 |
|---|---|
| Flight time | N/A |
| Altitude | 31000 |
| Route | EEVAA1 SHIPR DCT HNN DCT HAR DCT SAX DCT TUSKY DCT 47N060W DCT ALLRY/M086F330 DCT 51N050W 52N040W 53N030W 54N020W DCT DOGAL DCT BEXET/N0493F330 DCT BOFUM Q37 MALUD UL975 WAL M16 DOLAS/N0490F350 L603 LAMSO DCT EVELI DCT PAM DCT HMM DCT NOMKA DCT ARMUT DCT LULAR DCT DEXIT DCT PESAT DCT TEGRI DCT ARTAT UP975 TEPKI/N0496F370 UP975 ERGUN UL124 EVSAS UM688 RATVO DCT SISIN UM688 SIDAD P975 SESRU M677 OBNET/N0505F350 M677 VUTEB |
| Aircraft | B748/H-SDE3FGHIM1M2RWXY/LB1 |
Departure
| Time | 2026-05-05 15:48 |
|---|---|
| Airport | Louisville Muhammad Ali International Airport (KSDF) |
Arrival
| Time | N/A |
|---|---|
| Airport | Dubai International Airport (OMDB) |
| Time | Latitude | Longitude | Altitude | Speed | Heading |
|---|---|---|---|---|---|
| 2026-05-05 15:29 | 38.17575 | -85.73902 | 495 ft | 0 kts | 157° |
| 2026-05-05 15:31 | 38.17577 | -85.73903 | 495 ft | 3 kts | 157° |
| 2026-05-05 15:31 | 38.17594 | -85.73912 | 488 ft | 3 kts | 157° |
| 2026-05-05 15:31 | 38.17601 | -85.73913 | 484 ft | 0 kts | 124° |
| 2026-05-05 15:32 | 38.17604 | -85.73920 | 484 ft | 3 kts | 119° |
| 2026-05-05 15:32 | 38.17618 | -85.73940 | 489 ft | 3 kts | 173° |
| 2026-05-05 15:32 | 38.17639 | -85.73938 | 484 ft | 3 kts | 225° |
| 2026-05-05 15:32 | 38.17648 | -85.73924 | 484 ft | 0 kts | 250° |
| 2026-05-05 15:38 | 38.17645 | -85.73933 | 484 ft | 3 kts | 250° |
| 2026-05-05 15:38 | 38.17644 | -85.73937 | 484 ft | 0 kts | 250° |
| 2026-05-05 15:41 | 38.17644 | -85.73938 | 484 ft | 0 kts | 251° |
| 2026-05-05 15:41 | 38.17644 | -85.73939 | 484 ft | 0 kts | 256° |
| 2026-05-05 15:42 | 38.17644 | -85.73941 | 484 ft | 0 kts | 262° |
| 2026-05-05 15:42 | 38.17645 | -85.73945 | 484 ft | 1 kts | 273° |
| 2026-05-05 15:42 | 38.17652 | -85.73964 | 491 ft | 6 kts | 295° |
| 2026-05-05 15:42 | 38.17685 | -85.74040 | 485 ft | 11 kts | 301° |
| 2026-05-05 15:43 | 38.17718 | -85.74120 | 490 ft | 10 kts | 294° |
| 2026-05-05 15:43 | 38.17745 | -85.74209 | 487 ft | 12 kts | 290° |
| 2026-05-05 15:43 | 38.17779 | -85.74326 | 494 ft | 16 kts | 290° |
| 2026-05-05 15:43 | 38.17829 | -85.74419 | 499 ft | 10 kts | 328° |
| 2026-05-05 15:44 | 38.17890 | -85.74449 | 499 ft | 10 kts | 342° |
| 2026-05-05 15:44 | 38.17967 | -85.74474 | 493 ft | 13 kts | 346° |
| 2026-05-05 15:44 | 38.18066 | -85.74509 | 488 ft | 16 kts | 345° |
| 2026-05-05 15:44 | 38.18185 | -85.74548 | 490 ft | 19 kts | 346° |
| 2026-05-05 15:45 | 38.18330 | -85.74595 | 485 ft | 23 kts | 345° |
| 2026-05-05 15:45 | 38.18433 | -85.74629 | 487 ft | 8 kts | 345° |
| 2026-05-05 15:45 | 38.18470 | -85.74657 | 484 ft | 5 kts | 313° |
| 2026-05-05 15:45 | 38.18481 | -85.74690 | 483 ft | 4 kts | 282° |
| 2026-05-05 15:46 | 38.18480 | -85.74725 | 484 ft | 5 kts | 262° |
| 2026-05-05 15:46 | 38.18470 | -85.74770 | 488 ft | 4 kts | 241° |
| 2026-05-05 15:46 | 38.18454 | -85.74787 | 484 ft | 3 kts | 206° |
| 2026-05-05 15:46 | 38.18429 | -85.74787 | 486 ft | 5 kts | 172° |
| 2026-05-05 15:47 | 38.18406 | -85.74780 | 485 ft | 0 kts | 166° |
| 2026-05-05 15:48 | 38.18345 | -85.74760 | 494 ft | 38 kts | 165° |
| 2026-05-05 15:48 | 38.17757 | -85.74568 | 500 ft | 134 kts | 166° |
| 2026-05-05 15:48 | 38.16610 | -85.74209 | 837 ft | 187 kts | 167° |
| 2026-05-05 15:48 | 38.15381 | -85.73750 | 2188 ft | 180 kts | 168° |
| 2026-05-05 15:49 | 38.14141 | -85.73243 | 2503 ft | 196 kts | 173° |
| 2026-05-05 15:49 | 38.12714 | -85.73072 | 2759 ft | 212 kts | 186° |
| 2026-05-05 15:49 | 38.11199 | -85.73159 | 3059 ft | 228 kts | 190° |
| 2026-05-05 15:49 | 38.09584 | -85.73299 | 3671 ft | 241 kts | 187° |
| 2026-05-05 15:50 | 38.07865 | -85.73332 | 4569 ft | 251 kts | 185° |
| 2026-05-05 15:50 | 38.06101 | -85.73325 | 5512 ft | 256 kts | 184° |
| 2026-05-05 15:50 | 38.04310 | -85.73336 | 6440 ft | 261 kts | 184° |
| 2026-05-05 15:50 | 38.02492 | -85.73027 | 7340 ft | 270 kts | 164° |
| 2026-05-05 15:51 | 38.00773 | -85.71989 | 8215 ft | 276 kts | 157° |
| 2026-05-05 15:51 | 37.99082 | -85.70822 | 9077 ft | 279 kts | 155° |
| 2026-05-05 15:51 | 37.97540 | -85.69267 | 9945 ft | 291 kts | 134° |
| 2026-05-05 15:51 | 37.96524 | -85.66981 | 10613 ft | 311 kts | 111° |
| 2026-05-05 15:52 | 37.96217 | -85.64163 | 11079 ft | 335 kts | 97° |
| 2026-05-05 15:52 | 37.96184 | -85.61113 | 11455 ft | 357 kts | 93° |
| 2026-05-05 15:52 | 37.96201 | -85.57924 | 11862 ft | 377 kts | 94° |
| 2026-05-05 15:52 | 37.96149 | -85.54509 | 12271 ft | 397 kts | 95° |
| 2026-05-05 15:53 | 37.96053 | -85.50927 | 12699 ft | 418 kts | 95° |
| 2026-05-05 15:53 | 37.95982 | -85.47146 | 13282 ft | 435 kts | 94° |
| 2026-05-05 15:53 | 37.95933 | -85.43274 | 14029 ft | 445 kts | 94° |
| 2026-05-05 15:53 | 37.95869 | -85.39316 | 14842 ft | 452 kts | 94° |
| 2026-05-05 15:54 | 37.95788 | -85.35311 | 15672 ft | 457 kts | 94° |
| 2026-05-05 15:54 | 37.95707 | -85.31259 | 16531 ft | 462 kts | 94° |
| 2026-05-05 15:54 | 37.95392 | -85.27218 | 17353 ft | 462 kts | 104° |
| 2026-05-05 15:54 | 37.94725 | -85.23197 | 18183 ft | 467 kts | 105° |
| 2026-05-05 15:55 | 37.94033 | -85.19214 | 18877 ft | 471 kts | 105° |
| 2026-05-05 15:55 | 37.93336 | -85.15146 | 19549 ft | 476 kts | 104° |
| 2026-05-05 15:55 | 37.92648 | -85.11002 | 20214 ft | 481 kts | 104° |
| 2026-05-05 15:55 | 37.91992 | -85.06827 | 20863 ft | 487 kts | 99° |
| 2026-05-05 15:56 | 37.91855 | -85.02515 | 21477 ft | 494 kts | 87° |
| 2026-05-05 15:56 | 37.92207 | -84.98148 | 22103 ft | 499 kts | 84° |
| 2026-05-05 15:56 | 37.92643 | -84.93774 | 22721 ft | 503 kts | 83° |
| 2026-05-05 15:56 | 37.93062 | -84.89365 | 23326 ft | 507 kts | 84° |
| 2026-05-05 15:57 | 37.93434 | -84.84894 | 23834 ft | 511 kts | 85° |
| 2026-05-05 15:57 | 37.93808 | -84.80393 | 24297 ft | 516 kts | 84° |
| 2026-05-05 15:57 | 37.94214 | -84.75865 | 24733 ft | 520 kts | 83° |
| 2026-05-05 15:57 | 37.94628 | -84.71292 | 25149 ft | 525 kts | 84° |
| 2026-05-05 15:58 | 37.95022 | -84.66713 | 25572 ft | 529 kts | 84° |
| 2026-05-05 15:58 | 37.95414 | -84.62053 | 26000 ft | 534 kts | 83° |
| 2026-05-05 15:58 | 37.95816 | -84.57366 | 26418 ft | 538 kts | 83° |
| 2026-05-05 15:58 | 37.96226 | -84.52650 | 26940 ft | 539 kts | 83° |
| 2026-05-05 15:59 | 37.96794 | -84.47939 | 27562 ft | 538 kts | 74° |
| 2026-05-05 15:59 | 37.97987 | -84.43476 | 28205 ft | 535 kts | 65° |
| 2026-05-05 15:59 | 37.99439 | -84.39132 | 28815 ft | 535 kts | 64° |
| 2026-05-05 15:59 | 38.00910 | -84.34801 | 29435 ft | 536 kts | 63° |
| 2026-05-05 16:00 | 38.02372 | -84.30442 | 30057 ft | 536 kts | 64° |
| 2026-05-05 16:00 | 38.03814 | -84.26076 | 30570 ft | 537 kts | 63° |
| 2026-05-05 16:00 | 38.05270 | -84.21687 | 30940 ft | 541 kts | 63° |
| 2026-05-05 16:01 | 38.08219 | -84.12844 | 30972 ft | 543 kts | 63° |
| 2026-05-05 16:01 | 38.11114 | -84.04075 | 30981 ft | 542 kts | 63° |
| 2026-05-05 16:02 | 38.14035 | -83.95245 | 30984 ft | 542 kts | 63° |
| 2026-05-05 16:02 | 38.16938 | -83.86415 | 30967 ft | 539 kts | 63° |
| 2026-05-05 16:03 | 38.19827 | -83.77612 | 30921 ft | 538 kts | 63° |
| 2026-05-05 16:03 | 38.22217 | -83.70307 | 30912 ft | 538 kts | 63° |
| 2026-05-05 16:04 | 38.25088 | -83.61506 | 30922 ft | 537 kts | 63° |
| 2026-05-05 16:04 | 38.27943 | -83.52729 | 30931 ft | 537 kts | 64° |
| 2026-05-05 16:05 | 38.30780 | -83.43981 | 30933 ft | 533 kts | 64° |
| 2026-05-05 16:05 | 38.33602 | -83.35244 | 30929 ft | 533 kts | 64° |
| 2026-05-05 16:06 | 38.36418 | -83.26513 | 30935 ft | 533 kts | 64° |
| 2026-05-05 16:06 | 38.39214 | -83.17808 | 30937 ft | 532 kts | 64° |
| 2026-05-05 16:07 | 38.42005 | -83.09092 | 30951 ft | 531 kts | 65° |
| 2026-05-05 16:07 | 38.44788 | -83.00381 | 30962 ft | 530 kts | 65° |
| 2026-05-05 16:08 | 38.47566 | -82.91652 | 30960 ft | 530 kts | 65° |
| 2026-05-05 16:08 | 38.50332 | -82.82931 | 30966 ft | 530 kts | 65° |
| 2026-05-05 16:09 | 38.53094 | -82.74202 | 30970 ft | 528 kts | 65° |
| 2026-05-05 16:09 | 38.55812 | -82.65581 | 30971 ft | 526 kts | 65° |
| 2026-05-05 16:10 | 38.58537 | -82.56917 | 30965 ft | 526 kts | 65° |
| 2026-05-05 16:10 | 38.61258 | -82.48234 | 30931 ft | 525 kts | 65° |
| 2026-05-05 16:11 | 38.63968 | -82.39562 | 30929 ft | 525 kts | 65° |
| 2026-05-05 16:12 | 38.69356 | -82.22234 | 30921 ft | 523 kts | 65° |
| 2026-05-05 16:13 | 38.76353 | -82.00833 | 30470 ft | 516 kts | 56° |
| 2026-05-05 16:13 | 38.79213 | -81.92479 | 30871 ft | 519 kts | 68° |
| 2026-05-05 16:14 | 38.84763 | -81.75294 | 30910 ft | 521 kts | 63° |
| 2026-05-05 16:15 | 38.90437 | -81.58252 | 30912 ft | 517 kts | 63° |
| 2026-05-05 16:16 | 38.96106 | -81.41265 | 30910 ft | 517 kts | 64° |
| 2026-05-05 16:17 | 39.00339 | -81.28533 | 30907 ft | 517 kts | 64° |
| 2026-05-05 16:18 | 39.04564 | -81.15817 | 30917 ft | 515 kts | 64° |
| 2026-05-05 16:19 | 39.08767 | -81.03072 | 30915 ft | 515 kts | 64° |
| 2026-05-05 16:19 | 39.12946 | -80.90345 | 30917 ft | 516 kts | 64° |
| 2026-05-05 16:20 | 39.18495 | -80.73365 | 30908 ft | 515 kts | 64° |
| 2026-05-05 16:22 | 39.25439 | -80.51968 | 30929 ft | 519 kts | 64° |
| 2026-05-05 16:23 | 39.30968 | -80.34815 | 30940 ft | 517 kts | 64° |
| 2026-05-05 16:23 | 39.35096 | -80.21938 | 30940 ft | 517 kts | 64° |
| 2026-05-05 16:24 | 39.37839 | -80.13344 | 30920 ft | 516 kts | 64° |
| 2026-05-05 16:25 | 39.41960 | -80.00400 | 30941 ft | 522 kts | 64° |
| 2026-05-05 16:25 | 39.46080 | -79.87381 | 30929 ft | 522 kts | 64° |
| 2026-05-05 16:26 | 39.51528 | -79.70076 | 30927 ft | 517 kts | 63° |
| 2026-05-05 16:27 | 39.54235 | -79.61445 | 30933 ft | 517 kts | 63° |
| 2026-05-05 16:27 | 39.56939 | -79.52790 | 30942 ft | 520 kts | 63° |
| 2026-05-05 16:28 | 39.59666 | -79.44038 | 30942 ft | 524 kts | 63° |
| 2026-05-05 16:28 | 39.62383 | -79.35276 | 30946 ft | 524 kts | 63° |
| 2026-05-05 16:29 | 39.65101 | -79.26503 | 30937 ft | 524 kts | 63° |
| 2026-05-05 16:29 | 39.67812 | -79.17706 | 30942 ft | 524 kts | 63° |
| 2026-05-05 16:30 | 39.70494 | -79.08990 | 30940 ft | 524 kts | 63° |
| 2026-05-05 16:30 | 39.73161 | -79.00286 | 30969 ft | 525 kts | 63° |
| 2026-05-05 16:31 | 39.75880 | -78.91389 | 30949 ft | 528 kts | 63° |
| 2026-05-05 16:31 | 39.78578 | -78.82524 | 30945 ft | 528 kts | 63° |
| 2026-05-05 16:32 | 39.81278 | -78.73629 | 30917 ft | 528 kts | 64° |
| 2026-05-05 16:32 | 39.83964 | -78.64757 | 30899 ft | 524 kts | 65° |
| 2026-05-05 16:33 | 39.86619 | -78.55933 | 30895 ft | 522 kts | 65° |
| 2026-05-05 16:33 | 39.89250 | -78.47191 | 30895 ft | 521 kts | 65° |
| 2026-05-05 16:34 | 39.91887 | -78.38380 | 30896 ft | 522 kts | 65° |
| 2026-05-05 16:34 | 39.94519 | -78.29566 | 30896 ft | 522 kts | 65° |
| 2026-05-05 16:35 | 39.97144 | -78.20744 | 30888 ft | 522 kts | 65° |
| 2026-05-05 16:35 | 39.99772 | -78.11883 | 30891 ft | 523 kts | 65° |
| 2026-05-05 16:36 | 40.02387 | -78.03036 | 30897 ft | 522 kts | 65° |
| 2026-05-05 16:36 | 40.04995 | -77.94183 | 30890 ft | 522 kts | 65° |
| 2026-05-05 16:37 | 40.07588 | -77.85347 | 30897 ft | 521 kts | 65° |
| 2026-05-05 16:37 | 40.10178 | -77.76503 | 30893 ft | 521 kts | 65° |
| 2026-05-05 16:38 | 40.12734 | -77.67734 | 30887 ft | 520 kts | 65° |
| 2026-05-05 16:38 | 40.15283 | -77.58969 | 30875 ft | 520 kts | 65° |
| 2026-05-05 16:39 | 40.17840 | -77.50137 | 30883 ft | 517 kts | 65° |
| 2026-05-05 16:39 | 40.20381 | -77.41343 | 30883 ft | 516 kts | 66° |
| 2026-05-05 16:40 | 40.22896 | -77.32599 | 30891 ft | 518 kts | 66° |
| 2026-05-05 16:40 | 40.25430 | -77.23763 | 30889 ft | 518 kts | 66° |
| 2026-05-05 16:41 | 40.27952 | -77.14939 | 30880 ft | 515 kts | 66° |
| 2026-05-05 16:41 | 40.30471 | -77.06174 | 30881 ft | 513 kts | 64° |
| 2026-05-05 16:42 | 40.33211 | -76.97538 | 30883 ft | 513 kts | 64° |
| 2026-05-05 16:42 | 40.35932 | -76.88873 | 30883 ft | 513 kts | 64° |
| 2026-05-05 16:43 | 40.38653 | -76.80239 | 30897 ft | 511 kts | 65° |
| 2026-05-05 16:43 | 40.41337 | -76.71652 | 30893 ft | 511 kts | 65° |
| 2026-05-05 16:44 | 40.44040 | -76.63010 | 30891 ft | 511 kts | 65° |
| 2026-05-05 16:44 | 40.46734 | -76.54345 | 30891 ft | 511 kts | 65° |
| 2026-05-05 16:45 | 40.49403 | -76.45751 | 30882 ft | 508 kts | 65° |
| 2026-05-05 16:45 | 40.52061 | -76.37146 | 30883 ft | 507 kts | 66° |
| 2026-05-05 16:46 | 40.54711 | -76.28554 | 30928 ft | 507 kts | 66° |
| 2026-05-05 16:46 | 40.57344 | -76.19985 | 30925 ft | 508 kts | 66° |
| 2026-05-05 16:47 | 40.59987 | -76.11359 | 30914 ft | 508 kts | 66° |
| 2026-05-05 16:47 | 40.62619 | -76.02735 | 30894 ft | 505 kts | 66° |
| 2026-05-05 16:48 | 40.65231 | -75.94156 | 30891 ft | 505 kts | 66° |
| 2026-05-05 16:48 | 40.67829 | -75.85592 | 30892 ft | 505 kts | 66° |
| 2026-05-05 16:49 | 40.70434 | -75.76977 | 30902 ft | 506 kts | 66° |
| 2026-05-05 16:49 | 40.73033 | -75.68354 | 30905 ft | 505 kts | 66° |
| 2026-05-05 16:50 | 40.75186 | -75.61193 | 30905 ft | 505 kts | 66° |
| 2026-05-05 16:50 | 40.77695 | -75.52814 | 30907 ft | 505 kts | 66° |
| 2026-05-05 16:51 | 40.80274 | -75.44182 | 30898 ft | 505 kts | 66° |
| 2026-05-05 16:51 | 40.82838 | -75.35568 | 30895 ft | 502 kts | 66° |
| 2026-05-05 16:52 | 40.85373 | -75.27026 | 30900 ft | 502 kts | 67° |
| 2026-05-05 16:52 | 40.87919 | -75.18418 | 30898 ft | 503 kts | 67° |
| 2026-05-05 16:53 | 40.90463 | -75.09788 | 30898 ft | 504 kts | 67° |
| 2026-05-05 16:53 | 40.93004 | -75.01138 | 30891 ft | 501 kts | 66° |
| 2026-05-05 16:54 | 40.95522 | -74.92542 | 30891 ft | 501 kts | 66° |
| 2026-05-05 16:54 | 40.98015 | -74.84001 | 30899 ft | 501 kts | 67° |
| 2026-05-05 16:55 | 41.00527 | -74.75367 | 30896 ft | 502 kts | 67° |
| 2026-05-05 16:55 | 41.03032 | -74.66729 | 30896 ft | 502 kts | 67° |
| 2026-05-05 16:56 | 41.05535 | -74.58067 | 30898 ft | 503 kts | 67° |
| 2026-05-05 16:56 | 41.08319 | -74.49658 | 30902 ft | 500 kts | 61° |
| 2026-05-05 16:57 | 41.11457 | -74.41400 | 30906 ft | 501 kts | 61° |
| 2026-05-05 16:57 | 41.14555 | -74.33124 | 30900 ft | 500 kts | 61° |
| 2026-05-05 16:58 | 41.17641 | -74.24914 | 30899 ft | 496 kts | 61° |
| 2026-05-05 16:58 | 41.20710 | -74.16698 | 30885 ft | 496 kts | 61° |
| 2026-05-05 16:59 | 41.23755 | -74.08537 | 30881 ft | 496 kts | 61° |
| 2026-05-05 16:59 | 41.26813 | -74.00313 | 30888 ft | 496 kts | 61° |
| 2026-05-05 17:00 | 41.29863 | -73.92083 | 30900 ft | 495 kts | 62° |
| 2026-05-05 17:00 | 41.32889 | -73.83904 | 30893 ft | 496 kts | 62° |
| 2026-05-05 17:01 | 41.35933 | -73.75645 | 30910 ft | 496 kts | 62° |
| 2026-05-05 17:01 | 41.38973 | -73.67375 | 30892 ft | 496 kts | 62° |
| 2026-05-05 17:02 | 41.41981 | -73.59173 | 30892 ft | 496 kts | 62° |
| 2026-05-05 17:02 | 41.45019 | -73.50859 | 30883 ft | 500 kts | 62° |
| 2026-05-05 17:03 | 41.48052 | -73.42537 | 30885 ft | 499 kts | 62° |
| 2026-05-05 17:03 | 41.51067 | -73.34236 | 30914 ft | 499 kts | 62° |
| 2026-05-05 17:04 | 41.54084 | -73.25915 | 30926 ft | 498 kts | 63° |
| 2026-05-05 17:04 | 41.57096 | -73.17572 | 30930 ft | 498 kts | 63° |
| 2026-05-05 17:05 | 41.60101 | -73.09234 | 30913 ft | 497 kts | 63° |
| 2026-05-05 17:05 | 41.63097 | -73.00888 | 30911 ft | 497 kts | 63° |
| 2026-05-05 17:06 | 41.66067 | -72.92598 | 30912 ft | 497 kts | 64° |
| 2026-05-05 17:06 | 41.69060 | -72.84213 | 30889 ft | 499 kts | 64° |
| 2026-05-05 17:07 | 41.72044 | -72.75832 | 30860 ft | 500 kts | 64° |
| 2026-05-05 17:07 | 41.75028 | -72.67424 | 30863 ft | 500 kts | 64° |
| 2026-05-05 17:08 | 41.78010 | -72.58999 | 30862 ft | 500 kts | 64° |
| 2026-05-05 17:08 | 41.80990 | -72.50550 | 30882 ft | 500 kts | 64° |
| 2026-05-05 17:09 | 41.83940 | -72.42164 | 30884 ft | 500 kts | 64° |
| 2026-05-05 17:09 | 41.86904 | -72.33710 | 30888 ft | 501 kts | 64° |
| 2026-05-05 17:10 | 41.89866 | -72.25241 | 30885 ft | 501 kts | 64° |
| 2026-05-05 17:10 | 41.92817 | -72.16774 | 30902 ft | 501 kts | 65° |
| 2026-05-05 17:11 | 41.95747 | -72.08343 | 30908 ft | 501 kts | 65° |
| 2026-05-05 17:11 | 41.98688 | -71.99854 | 30894 ft | 500 kts | 65° |
| 2026-05-05 17:12 | 42.01583 | -71.91474 | 30897 ft | 500 kts | 65° |
| 2026-05-05 17:12 | 42.04507 | -71.82984 | 30897 ft | 500 kts | 65° |
| 2026-05-05 17:13 | 42.07409 | -71.74530 | 30893 ft | 500 kts | 65° |
| 2026-05-05 17:13 | 42.10323 | -71.66018 | 30894 ft | 500 kts | 65° |
| 2026-05-05 17:14 | 42.13230 | -71.57497 | 30901 ft | 500 kts | 65° |
| 2026-05-05 17:14 | 42.16135 | -71.48958 | 30915 ft | 500 kts | 66° |
| 2026-05-05 17:15 | 42.18958 | -71.40633 | 30897 ft | 500 kts | 66° |
| 2026-05-05 17:15 | 42.21844 | -71.32100 | 30887 ft | 500 kts | 66° |
| 2026-05-05 17:16 | 42.24722 | -71.23558 | 30885 ft | 500 kts | 66° |
| 2026-05-05 17:16 | 42.27594 | -71.15011 | 30879 ft | 500 kts | 66° |
| 2026-05-05 17:17 | 42.30454 | -71.06471 | 30872 ft | 501 kts | 66° |
| 2026-05-05 17:17 | 42.33274 | -70.98026 | 30871 ft | 500 kts | 66° |
| 2026-05-05 17:18 | 42.36129 | -70.89449 | 30868 ft | 500 kts | 66° |
| 2026-05-05 17:18 | 42.38966 | -70.80902 | 30867 ft | 499 kts | 67° |
| 2026-05-05 17:19 | 42.41808 | -70.72306 | 30885 ft | 500 kts | 67° |
| 2026-05-05 17:19 | 42.44643 | -70.63710 | 30878 ft | 500 kts | 67° |
| 2026-05-05 17:20 | 42.47476 | -70.55090 | 30885 ft | 500 kts | 67° |
| 2026-05-05 17:20 | 42.50293 | -70.46493 | 30895 ft | 497 kts | 67° |
| 2026-05-05 17:21 | 42.53091 | -70.37924 | 30894 ft | 497 kts | 67° |
| 2026-05-05 17:22 | 42.57269 | -70.25081 | 30899 ft | 498 kts | 67° |
| 2026-05-05 17:22 | 42.60035 | -70.16544 | 30898 ft | 498 kts | 68° |
| 2026-05-05 17:23 | 42.62816 | -70.07935 | 30889 ft | 497 kts | 68° |
| 2026-05-05 17:23 | 42.65574 | -69.99368 | 30905 ft | 498 kts | 68° |
| 2026-05-05 17:24 | 42.68351 | -69.90715 | 30907 ft | 499 kts | 68° |
| 2026-05-05 17:24 | 42.71114 | -69.82077 | 30896 ft | 497 kts | 68° |
| 2026-05-05 17:25 | 42.73872 | -69.73427 | 30902 ft | 498 kts | 68° |
| 2026-05-05 17:25 | 42.76640 | -69.64714 | 31404 ft | 506 kts | 68° |
| 2026-05-05 17:25 | 42.78036 | -69.60311 | 31764 ft | 509 kts | 68° |
| 2026-05-05 17:26 | 42.79445 | -69.55861 | 32138 ft | 511 kts | 67° |
| 2026-05-05 17:26 | 42.80833 | -69.51468 | 32529 ft | 513 kts | 67° |
| 2026-05-05 17:26 | 42.82242 | -69.46999 | 32884 ft | 512 kts | 67° |
| 2026-05-05 17:27 | 42.85051 | -69.38073 | 32917 ft | 511 kts | 67° |
| 2026-05-05 17:27 | 42.87843 | -69.29168 | 32902 ft | 510 kts | 68° |
| 2026-05-05 17:28 | 42.90628 | -69.20258 | 32915 ft | 510 kts | 68° |
| 2026-05-05 17:28 | 42.93398 | -69.11361 | 32934 ft | 510 kts | 68° |
| 2026-05-05 17:29 | 42.96155 | -69.02481 | 32932 ft | 510 kts | 68° |
| 2026-05-05 17:29 | 42.98915 | -68.93557 | 32941 ft | 510 kts | 68° |
| 2026-05-05 17:30 | 43.01676 | -68.84601 | 32923 ft | 510 kts | 68° |
| 2026-05-05 17:30 | 43.04429 | -68.75644 | 32945 ft | 511 kts | 68° |
| 2026-05-05 17:31 | 43.07158 | -68.66729 | 32944 ft | 511 kts | 68° |
| 2026-05-05 17:31 | 43.09861 | -68.57873 | 32950 ft | 510 kts | 68° |
| 2026-05-05 17:32 | 43.12586 | -68.48909 | 32955 ft | 510 kts | 68° |
| 2026-05-05 17:32 | 43.15312 | -68.39916 | 32943 ft | 511 kts | 68° |
| 2026-05-05 17:33 | 43.18010 | -68.30979 | 32934 ft | 510 kts | 68° |
| 2026-05-05 17:33 | 43.20686 | -68.22089 | 32963 ft | 510 kts | 68° |
| 2026-05-05 17:34 | 43.23391 | -68.13070 | 32962 ft | 510 kts | 68° |
| 2026-05-05 17:34 | 43.26082 | -68.04065 | 32963 ft | 510 kts | 68° |
| 2026-05-05 17:35 | 43.28751 | -67.95105 | 32961 ft | 511 kts | 68° |
| 2026-05-05 17:35 | 43.31433 | -67.86066 | 32955 ft | 511 kts | 68° |
| 2026-05-05 17:36 | 43.34107 | -67.77023 | 32970 ft | 510 kts | 68° |
| 2026-05-05 17:36 | 43.36767 | -67.67994 | 32958 ft | 510 kts | 68° |
| 2026-05-05 17:37 | 43.38982 | -67.60455 | 32952 ft | 511 kts | 68° |
| 2026-05-05 17:37 | 43.41634 | -67.51395 | 32953 ft | 511 kts | 68° |
| 2026-05-05 17:38 | 43.44284 | -67.42312 | 32962 ft | 511 kts | 68° |
| 2026-05-05 17:38 | 43.46929 | -67.33213 | 32966 ft | 512 kts | 68° |
| 2026-05-05 17:39 | 43.49558 | -67.24135 | 32963 ft | 511 kts | 68° |
| 2026-05-05 17:39 | 43.52192 | -67.15007 | 32968 ft | 510 kts | 68° |
| 2026-05-05 17:40 | 43.54791 | -67.05968 | 32965 ft | 511 kts | 68° |
| 2026-05-05 17:40 | 43.57884 | -66.97165 | 33006 ft | 509 kts | 54° |
| 2026-05-05 17:41 | 43.62291 | -66.89529 | 32980 ft | 508 kts | 49° |
| 2026-05-05 17:41 | 43.66574 | -66.81751 | 32983 ft | 509 kts | 53° |
| 2026-05-05 17:42 | 43.70802 | -66.73984 | 32979 ft | 508 kts | 50° |
| 2026-05-05 17:42 | 43.75102 | -66.66198 | 32990 ft | 508 kts | 52° |
| 2026-05-05 17:43 | 43.79343 | -66.58367 | 32985 ft | 508 kts | 51° |
| 2026-05-05 17:43 | 43.83621 | -66.50555 | 32984 ft | 508 kts | 51° |
| 2026-05-05 17:44 | 43.87835 | -66.42760 | 32996 ft | 508 kts | 51° |
| 2026-05-05 17:44 | 43.92088 | -66.34928 | 32999 ft | 508 kts | 51° |
| 2026-05-05 17:45 | 43.96328 | -66.27062 | 32997 ft | 508 kts | 51° |
| 2026-05-05 17:45 | 44.00568 | -66.19197 | 32999 ft | 508 kts | 51° |
| 2026-05-05 17:46 | 44.04795 | -66.11320 | 33005 ft | 509 kts | 51° |
| 2026-05-05 17:46 | 44.09020 | -66.03436 | 33005 ft | 509 kts | 51° |
| 2026-05-05 17:47 | 44.13245 | -65.95525 | 33001 ft | 509 kts | 51° |
| 2026-05-05 17:47 | 44.17461 | -65.87612 | 32988 ft | 508 kts | 51° |
| 2026-05-05 17:48 | 44.21645 | -65.79737 | 32985 ft | 508 kts | 51° |
| 2026-05-05 17:48 | 44.25839 | -65.71820 | 32986 ft | 507 kts | 51° |
| 2026-05-05 17:49 | 44.30031 | -65.63886 | 32999 ft | 507 kts | 51° |
| 2026-05-05 17:49 | 44.34227 | -65.55924 | 32989 ft | 508 kts | 51° |
| 2026-05-05 17:50 | 44.38386 | -65.48009 | 32992 ft | 508 kts | 51° |
| 2026-05-05 17:50 | 44.42571 | -65.40024 | 32984 ft | 508 kts | 52° |
| 2026-05-05 17:51 | 44.46738 | -65.32048 | 32991 ft | 508 kts | 51° |
| 2026-05-05 17:51 | 44.50916 | -65.24035 | 32986 ft | 509 kts | 51° |
| 2026-05-05 17:52 | 44.55083 | -65.16014 | 32968 ft | 509 kts | 51° |
| 2026-05-05 17:52 | 44.59243 | -65.07989 | 32980 ft | 509 kts | 51° |
| 2026-05-05 17:53 | 44.63400 | -64.99945 | 32964 ft | 509 kts | 51° |
| 2026-05-05 17:53 | 44.67551 | -64.91892 | 32950 ft | 509 kts | 51° |
| 2026-05-05 17:54 | 44.71675 | -64.83867 | 32941 ft | 509 kts | 51° |
| 2026-05-05 17:54 | 44.75816 | -64.75785 | 32941 ft | 508 kts | 51° |
| 2026-05-05 17:55 | 44.79945 | -64.67711 | 32934 ft | 508 kts | 51° |
| 2026-05-05 17:55 | 44.84074 | -64.59607 | 32930 ft | 508 kts | 51° |
| 2026-05-05 17:56 | 44.88198 | -64.51492 | 32944 ft | 508 kts | 51° |
| 2026-05-05 17:56 | 44.92289 | -64.43421 | 32934 ft | 509 kts | 51° |
| 2026-05-05 17:57 | 44.96405 | -64.35275 | 32922 ft | 509 kts | 51° |
| 2026-05-05 17:57 | 45.00506 | -64.27137 | 32926 ft | 508 kts | 51° |
| 2026-05-05 17:58 | 45.04608 | -64.18974 | 32931 ft | 509 kts | 51° |
| 2026-05-05 17:58 | 45.08704 | -64.10801 | 32926 ft | 510 kts | 51° |
| 2026-05-05 17:59 | 45.12791 | -64.02619 | 32922 ft | 508 kts | 51° |
| 2026-05-05 17:59 | 45.16852 | -63.94469 | 32936 ft | 509 kts | 51° |
| 2026-05-05 18:00 | 45.20943 | -63.86233 | 32926 ft | 509 kts | 51° |
| 2026-05-05 18:00 | 45.24999 | -63.78046 | 32931 ft | 509 kts | 51° |
| 2026-05-05 18:01 | 45.29044 | -63.69856 | 32929 ft | 510 kts | 51° |
| 2026-05-05 18:01 | 45.33111 | -63.61596 | 32930 ft | 510 kts | 51° |
| 2026-05-05 18:02 | 45.37170 | -63.53334 | 32924 ft | 510 kts | 51° |
| 2026-05-05 18:02 | 45.41217 | -63.45065 | 32916 ft | 507 kts | 51° |
| 2026-05-05 18:03 | 45.45234 | -63.36840 | 32947 ft | 505 kts | 51° |
| 2026-05-05 18:03 | 45.49236 | -63.28619 | 32921 ft | 505 kts | 51° |
| 2026-05-05 18:04 | 45.53229 | -63.20392 | 32909 ft | 504 kts | 51° |
| 2026-05-05 18:04 | 45.57200 | -63.12188 | 32910 ft | 505 kts | 51° |
| 2026-05-05 18:05 | 45.61178 | -63.03946 | 32911 ft | 504 kts | 51° |
| 2026-05-05 18:05 | 45.65151 | -62.95691 | 32902 ft | 504 kts | 51° |
| 2026-05-05 18:06 | 45.69126 | -62.87404 | 32903 ft | 504 kts | 51° |
| 2026-05-05 18:06 | 45.73095 | -62.79109 | 32911 ft | 504 kts | 51° |
| 2026-05-05 18:07 | 45.77061 | -62.70793 | 32914 ft | 506 kts | 51° |
| 2026-05-05 18:07 | 45.80999 | -62.62514 | 32905 ft | 505 kts | 51° |
| 2026-05-05 18:08 | 45.84940 | -62.54203 | 32910 ft | 503 kts | 51° |
| 2026-05-05 18:08 | 45.88880 | -62.45868 | 32917 ft | 503 kts | 51° |
| 2026-05-05 18:09 | 45.92793 | -62.37569 | 32909 ft | 502 kts | 51° |
| 2026-05-05 18:09 | 45.96710 | -62.29237 | 32909 ft | 502 kts | 51° |
| 2026-05-05 18:10 | 46.00584 | -62.20969 | 32907 ft | 502 kts | 51° |
| 2026-05-05 18:10 | 46.04485 | -62.12620 | 32920 ft | 502 kts | 51° |
| 2026-05-05 18:11 | 46.08374 | -62.04272 | 32921 ft | 501 kts | 51° |
| 2026-05-05 18:11 | 46.12261 | -61.95904 | 32921 ft | 502 kts | 51° |
| 2026-05-05 18:12 | 46.16138 | -61.87533 | 32919 ft | 502 kts | 51° |
| 2026-05-05 18:12 | 46.19987 | -61.79196 | 32915 ft | 502 kts | 51° |
| 2026-05-05 18:13 | 46.23845 | -61.70816 | 32913 ft | 500 kts | 51° |
| 2026-05-05 18:13 | 46.27698 | -61.62421 | 32909 ft | 500 kts | 51° |
| 2026-05-05 18:14 | 46.31535 | -61.54034 | 32912 ft | 500 kts | 51° |
| 2026-05-05 18:14 | 46.35365 | -61.45641 | 32908 ft | 499 kts | 51° |
| 2026-05-05 18:15 | 46.39162 | -61.37294 | 32902 ft | 499 kts | 51° |
| 2026-05-05 18:15 | 46.42978 | -61.28878 | 32899 ft | 499 kts | 51° |
| 2026-05-05 18:16 | 46.46785 | -61.20459 | 32900 ft | 499 kts | 51° |
| 2026-05-05 18:16 | 46.50580 | -61.12041 | 32901 ft | 499 kts | 51° |
| 2026-05-05 18:17 | 46.54370 | -61.03606 | 32881 ft | 499 kts | 51° |
| 2026-05-05 18:17 | 46.58164 | -60.95140 | 32902 ft | 499 kts | 51° |
| 2026-05-05 18:18 | 46.61930 | -60.86706 | 32879 ft | 499 kts | 51° |
| 2026-05-05 18:18 | 46.65705 | -60.78231 | 32888 ft | 498 kts | 51° |
| 2026-05-05 18:19 | 46.69460 | -60.69772 | 32886 ft | 498 kts | 51° |
| 2026-05-05 18:19 | 46.73217 | -60.61283 | 32887 ft | 498 kts | 51° |
| 2026-05-05 18:20 | 46.76972 | -60.52776 | 32899 ft | 499 kts | 51° |
| 2026-05-05 18:20 | 46.80717 | -60.44260 | 32897 ft | 499 kts | 51° |
| 2026-05-05 18:21 | 46.84467 | -60.35709 | 32906 ft | 499 kts | 51° |
| 2026-05-05 18:21 | 46.88178 | -60.27220 | 32950 ft | 499 kts | 51° |
| 2026-05-05 18:22 | 46.91918 | -60.18642 | 32924 ft | 500 kts | 51° |
| 2026-05-05 18:22 | 46.95649 | -60.10055 | 32933 ft | 500 kts | 51° |
| 2026-05-05 18:23 | 46.99382 | -60.01435 | 32935 ft | 500 kts | 51° |
| 2026-05-05 18:23 | 47.03425 | -59.93223 | 32933 ft | 496 kts | 47° |
| 2026-05-05 18:24 | 47.07523 | -59.85071 | 32942 ft | 496 kts | 46° |
| 2026-05-05 18:24 | 47.10918 | -59.78308 | 32942 ft | 495 kts | 46° |
| 2026-05-05 18:25 | 47.14992 | -59.70169 | 32942 ft | 495 kts | 47° |
| 2026-05-05 18:25 | 47.19071 | -59.61995 | 32944 ft | 495 kts | 46° |
| 2026-05-05 18:26 | 47.23115 | -59.53870 | 32944 ft | 495 kts | 46° |
| 2026-05-05 18:26 | 47.27173 | -59.45688 | 32943 ft | 495 kts | 46° |
| 2026-05-05 18:27 | 47.31227 | -59.37491 | 32946 ft | 495 kts | 47° |
| 2026-05-05 18:27 | 47.35280 | -59.29272 | 32939 ft | 494 kts | 46° |
| 2026-05-05 18:28 | 47.41314 | -59.16993 | 32938 ft | 495 kts | 46° |
| 2026-05-05 18:28 | 47.45346 | -59.08756 | 32966 ft | 494 kts | 46° |
| 2026-05-05 18:29 | 47.49370 | -59.00509 | 32964 ft | 494 kts | 46° |
| 2026-05-05 18:29 | 47.53382 | -58.92264 | 32969 ft | 494 kts | 46° |
| 2026-05-05 18:30 | 47.57385 | -58.84011 | 32967 ft | 493 kts | 46° |
| 2026-05-05 18:30 | 47.61382 | -58.75748 | 32966 ft | 493 kts | 47° |
| 2026-05-05 18:31 | 47.65379 | -58.67460 | 32968 ft | 494 kts | 46° |
| 2026-05-05 18:31 | 47.69373 | -58.59150 | 32967 ft | 494 kts | 47° |
| 2026-05-05 18:32 | 47.73340 | -58.50875 | 32973 ft | 495 kts | 47° |
| 2026-05-05 18:32 | 47.77326 | -58.42531 | 32995 ft | 494 kts | 47° |
| 2026-05-05 18:33 | 47.81310 | -58.34169 | 32968 ft | 495 kts | 47° |
| 2026-05-05 18:33 | 47.85283 | -58.25805 | 32962 ft | 497 kts | 47° |
| 2026-05-05 18:34 | 47.89245 | -58.17428 | 32947 ft | 492 kts | 47° |
| 2026-05-05 18:34 | 47.93168 | -58.09125 | 32940 ft | 493 kts | 47° |
| 2026-05-05 18:35 | 47.97107 | -58.00750 | 32940 ft | 492 kts | 47° |
| 2026-05-05 18:35 | 48.01037 | -57.92376 | 32938 ft | 492 kts | 47° |
| 2026-05-05 18:36 | 48.04957 | -57.83992 | 32924 ft | 492 kts | 47° |
| 2026-05-05 18:36 | 48.08847 | -57.75650 | 32921 ft | 493 kts | 47° |
| 2026-05-05 18:37 | 48.12767 | -57.67215 | 32921 ft | 492 kts | 47° |
| 2026-05-05 18:37 | 48.16675 | -57.58782 | 32909 ft | 492 kts | 47° |
| 2026-05-05 18:38 | 48.20571 | -57.50350 | 32897 ft | 492 kts | 47° |
| 2026-05-05 18:38 | 48.24447 | -57.41933 | 32898 ft | 494 kts | 47° |
| 2026-05-05 18:39 | 48.28363 | -57.33401 | 32888 ft | 494 kts | 47° |
| 2026-05-05 18:39 | 48.32248 | -57.24913 | 32879 ft | 494 kts | 47° |
| 2026-05-05 18:40 | 48.36140 | -57.16381 | 32877 ft | 494 kts | 48° |
| 2026-05-05 18:40 | 48.39998 | -57.07899 | 32874 ft | 494 kts | 47° |
| 2026-05-05 18:41 | 48.43877 | -56.99342 | 32841 ft | 495 kts | 47° |
| 2026-05-05 18:41 | 48.47749 | -56.90774 | 32839 ft | 494 kts | 47° |
| 2026-05-05 18:42 | 48.51592 | -56.82244 | 32828 ft | 494 kts | 47° |
| 2026-05-05 18:42 | 48.55449 | -56.73655 | 32829 ft | 494 kts | 48° |
| 2026-05-05 18:43 | 48.59305 | -56.65042 | 32824 ft | 494 kts | 48° |
| 2026-05-05 18:43 | 48.63146 | -56.56432 | 32827 ft | 494 kts | 48° |
| 2026-05-05 18:44 | 48.66971 | -56.47833 | 32852 ft | 495 kts | 48° |
| 2026-05-05 18:44 | 48.70811 | -56.39172 | 32835 ft | 495 kts | 48° |
| 2026-05-05 18:45 | 48.74645 | -56.30498 | 32841 ft | 495 kts | 48° |
| 2026-05-05 18:45 | 48.78477 | -56.21798 | 32835 ft | 496 kts | 48° |
| 2026-05-05 18:46 | 48.82280 | -56.13137 | 32831 ft | 498 kts | 47° |
| 2026-05-05 18:46 | 48.86117 | -56.04372 | 32830 ft | 499 kts | 48° |
| 2026-05-05 18:47 | 48.89952 | -55.95579 | 32835 ft | 499 kts | 48° |
| 2026-05-05 18:47 | 48.93785 | -55.86766 | 32837 ft | 498 kts | 48° |
| 2026-05-05 18:48 | 48.97602 | -55.77960 | 32830 ft | 500 kts | 48° |
| 2026-05-05 18:48 | 49.01425 | -55.69105 | 32837 ft | 500 kts | 49° |
| 2026-05-05 18:49 | 49.05213 | -55.60310 | 32834 ft | 499 kts | 49° |
| 2026-05-05 18:49 | 49.09021 | -55.51435 | 32829 ft | 499 kts | 49° |
| 2026-05-05 18:50 | 49.12826 | -55.42544 | 32841 ft | 502 kts | 49° |
| 2026-05-05 18:50 | 49.16634 | -55.33602 | 32828 ft | 502 kts | 49° |
| 2026-05-05 18:51 | 49.20432 | -55.24667 | 32821 ft | 501 kts | 49° |
| 2026-05-05 18:51 | 49.24210 | -55.15742 | 32822 ft | 502 kts | 50° |
| 2026-05-05 18:52 | 49.28008 | -55.06748 | 32811 ft | 504 kts | 50° |
| 2026-05-05 18:52 | 49.31807 | -54.97708 | 32808 ft | 504 kts | 50° |
| 2026-05-05 18:53 | 49.35600 | -54.88663 | 32810 ft | 505 kts | 50° |
| 2026-05-05 18:53 | 49.39378 | -54.79615 | 32798 ft | 504 kts | 50° |
| 2026-05-05 18:54 | 49.43175 | -54.70501 | 32818 ft | 507 kts | 51° |
| 2026-05-05 18:54 | 49.46966 | -54.61355 | 32811 ft | 507 kts | 51° |
| 2026-05-05 18:55 | 49.50759 | -54.52185 | 32810 ft | 507 kts | 51° |
| 2026-05-05 18:55 | 49.54513 | -54.43072 | 32825 ft | 507 kts | 51° |
| 2026-05-05 18:56 | 49.58298 | -54.33859 | 32818 ft | 509 kts | 52° |
| 2026-05-05 18:56 | 49.62071 | -54.24629 | 32816 ft | 509 kts | 52° |
| 2026-05-05 18:57 | 49.65846 | -54.15376 | 32812 ft | 509 kts | 52° |
| 2026-05-05 18:57 | 49.69605 | -54.06122 | 32812 ft | 509 kts | 52° |
| 2026-05-05 18:58 | 49.73382 | -53.96797 | 32825 ft | 512 kts | 52° |
| 2026-05-05 18:58 | 49.77146 | -53.87461 | 32832 ft | 511 kts | 52° |
| 2026-05-05 18:59 | 49.80904 | -53.78119 | 32825 ft | 511 kts | 52° |
| 2026-05-05 18:59 | 49.84624 | -53.68829 | 32851 ft | 511 kts | 52° |
| 2026-05-05 19:00 | 49.88380 | -53.59417 | 32823 ft | 511 kts | 52° |
| 2026-05-05 19:00 | 49.92126 | -53.50003 | 32818 ft | 511 kts | 52° |
| 2026-05-05 19:01 | 49.95856 | -53.40590 | 32814 ft | 511 kts | 53° |
| 2026-05-05 19:01 | 49.99550 | -53.31238 | 32821 ft | 511 kts | 53° |
| 2026-05-05 19:02 | 50.03259 | -53.21812 | 32814 ft | 511 kts | 53° |
| 2026-05-05 19:02 | 50.06967 | -53.12353 | 32815 ft | 511 kts | 53° |
| 2026-05-05 19:03 | 50.10661 | -53.02896 | 32815 ft | 511 kts | 53° |
| 2026-05-05 19:03 | 50.14353 | -52.93415 | 32803 ft | 512 kts | 53° |
| 2026-05-05 19:04 | 50.18015 | -52.83969 | 32810 ft | 512 kts | 53° |
| 2026-05-05 19:04 | 50.21693 | -52.74451 | 32813 ft | 512 kts | 53° |
| 2026-05-05 19:05 | 50.25372 | -52.64896 | 32809 ft | 512 kts | 53° |
| 2026-05-05 19:05 | 50.29041 | -52.55333 | 32819 ft | 513 kts | 54° |
| 2026-05-05 19:06 | 50.32704 | -52.45745 | 32819 ft | 513 kts | 54° |
| 2026-05-05 19:06 | 50.36361 | -52.36144 | 32817 ft | 513 kts | 54° |
| 2026-05-05 19:07 | 50.39387 | -52.28168 | 32814 ft | 513 kts | 54° |
| 2026-05-05 19:07 | 50.43619 | -52.16976 | 32817 ft | 513 kts | 55° |
| 2026-05-05 19:08 | 50.47237 | -52.07365 | 32815 ft | 510 kts | 55° |
| 2026-05-05 19:08 | 50.50645 | -51.97572 | 32828 ft | 514 kts | 64° |
| 2026-05-05 19:09 | 50.53348 | -51.87136 | 32822 ft | 515 kts | 64° |
| 2026-05-05 19:09 | 50.56042 | -51.76784 | 32814 ft | 515 kts | 64° |
| 2026-05-05 19:10 | 50.58733 | -51.66329 | 32820 ft | 515 kts | 65° |
| 2026-05-05 19:10 | 50.61437 | -51.55815 | 32825 ft | 515 kts | 65° |
| 2026-05-05 19:11 | 50.64098 | -51.45403 | 32823 ft | 515 kts | 65° |
| 2026-05-05 19:11 | 50.66768 | -51.34911 | 32840 ft | 515 kts | 65° |
| 2026-05-05 19:12 | 50.69425 | -51.24419 | 32819 ft | 515 kts | 66° |
| 2026-05-05 19:12 | 50.72080 | -51.13892 | 32819 ft | 515 kts | 66° |
| 2026-05-05 19:13 | 50.74716 | -51.03387 | 32822 ft | 513 kts | 66° |
| 2026-05-05 19:13 | 50.77318 | -50.92967 | 32821 ft | 512 kts | 66° |
| 2026-05-05 19:14 | 50.79925 | -50.82480 | 32824 ft | 513 kts | 67° |
| 2026-05-05 19:14 | 50.82523 | -50.71977 | 32823 ft | 513 kts | 67° |
| 2026-05-05 19:15 | 50.85119 | -50.61437 | 32826 ft | 514 kts | 67° |
| 2026-05-05 19:15 | 50.87271 | -50.52656 | 32822 ft | 514 kts | 67° |
| 2026-05-05 19:16 | 50.89851 | -50.42092 | 32841 ft | 514 kts | 68° |
| 2026-05-05 19:16 | 50.92421 | -50.31509 | 32833 ft | 514 kts | 68° |
| 2026-05-05 19:17 | 50.94966 | -50.20982 | 32844 ft | 514 kts | 68° |
| 2026-05-05 19:17 | 50.97512 | -50.10398 | 32840 ft | 514 kts | 68° |
| 2026-05-05 19:18 | 51.00006 | -49.99766 | 32852 ft | 514 kts | 73° |
| 2026-05-05 19:18 | 51.01638 | -49.88690 | 32847 ft | 515 kts | 77° |
| 2026-05-05 19:19 | 51.03241 | -49.77584 | 32850 ft | 515 kts | 77° |
| 2026-05-05 19:19 | 51.04829 | -49.66461 | 32863 ft | 515 kts | 77° |
| 2026-05-05 19:20 | 51.06405 | -49.55349 | 32861 ft | 515 kts | 77° |
| 2026-05-05 19:20 | 51.07970 | -49.44237 | 32858 ft | 516 kts | 77° |
| 2026-05-05 19:21 | 51.09527 | -49.33090 | 32863 ft | 516 kts | 77° |
| 2026-05-05 19:21 | 51.11074 | -49.21939 | 32855 ft | 516 kts | 77° |
| 2026-05-05 19:22 | 51.12608 | -49.10794 | 32856 ft | 516 kts | 78° |
| 2026-05-05 19:22 | 51.14135 | -48.99619 | 32866 ft | 517 kts | 78° |
| 2026-05-05 19:23 | 51.15654 | -48.88416 | 32870 ft | 517 kts | 78° |
| 2026-05-05 19:23 | 51.17148 | -48.77312 | 32870 ft | 517 kts | 78° |
| 2026-05-05 19:24 | 51.18644 | -48.66108 | 32882 ft | 517 kts | 78° |
| 2026-05-05 19:24 | 51.20127 | -48.54907 | 32883 ft | 517 kts | 78° |
| 2026-05-05 19:25 | 51.21602 | -48.43688 | 32887 ft | 517 kts | 78° |
| 2026-05-05 19:25 | 51.23064 | -48.32476 | 32905 ft | 516 kts | 78° |
| 2026-05-05 19:26 | 51.24512 | -48.21280 | 32903 ft | 514 kts | 78° |
| 2026-05-05 19:26 | 51.25948 | -48.10087 | 32902 ft | 514 kts | 78° |
| 2026-05-05 19:27 | 51.27372 | -47.98897 | 32906 ft | 514 kts | 78° |
| 2026-05-05 19:27 | 51.28787 | -47.87688 | 32902 ft | 514 kts | 79° |
| 2026-05-05 19:28 | 51.30189 | -47.76491 | 32908 ft | 514 kts | 79° |
| 2026-05-05 19:28 | 51.31577 | -47.65310 | 32909 ft | 512 kts | 79° |
| 2026-05-05 19:29 | 51.32954 | -47.54135 | 32910 ft | 512 kts | 79° |
| 2026-05-05 19:29 | 51.34310 | -47.43027 | 32915 ft | 512 kts | 79° |
| 2026-05-05 19:30 | 51.35667 | -47.31824 | 32915 ft | 512 kts | 79° |
| 2026-05-05 19:30 | 51.37012 | -47.20627 | 32921 ft | 512 kts | 79° |
| 2026-05-05 19:31 | 51.38343 | -47.09451 | 32927 ft | 511 kts | 80° |
| 2026-05-05 19:31 | 51.39662 | -46.98277 | 32932 ft | 511 kts | 80° |
| 2026-05-05 19:32 | 51.40971 | -46.87082 | 32935 ft | 511 kts | 80° |
| 2026-05-05 19:32 | 51.42270 | -46.75891 | 32938 ft | 511 kts | 80° |
| 2026-05-05 19:33 | 51.43555 | -46.64719 | 32954 ft | 510 kts | 80° |
| 2026-05-05 19:33 | 51.44826 | -46.53559 | 32952 ft | 508 kts | 81° |
| 2026-05-05 19:34 | 51.46088 | -46.42391 | 32950 ft | 508 kts | 81° |
| 2026-05-05 19:35 | 51.47949 | -46.25729 | 32955 ft | 508 kts | 81° |
| 2026-05-05 19:35 | 51.49185 | -46.14542 | 32957 ft | 508 kts | 81° |
| 2026-05-05 19:36 | 51.50408 | -46.03373 | 32969 ft | 508 kts | 81° |
| 2026-05-05 19:36 | 51.51617 | -45.92210 | 32969 ft | 508 kts | 81° |
| 2026-05-05 19:37 | 51.52813 | -45.81080 | 32960 ft | 508 kts | 81° |
| 2026-05-05 19:37 | 51.54003 | -45.69893 | 32966 ft | 508 kts | 81° |
| 2026-05-05 19:38 | 51.55183 | -45.58707 | 32970 ft | 508 kts | 81° |
| 2026-05-05 19:38 | 51.56353 | -45.47499 | 32974 ft | 508 kts | 82° |
| 2026-05-05 19:39 | 51.57509 | -45.36313 | 32976 ft | 507 kts | 82° |
| 2026-05-05 19:39 | 51.58653 | -45.25147 | 32978 ft | 507 kts | 82° |
| 2026-05-05 19:40 | 51.59789 | -45.13948 | 32978 ft | 507 kts | 82° |
| 2026-05-05 19:40 | 51.60912 | -45.02757 | 32978 ft | 507 kts | 82° |
| 2026-05-05 19:41 | 51.62025 | -44.91559 | 32984 ft | 507 kts | 82° |
| 2026-05-05 19:41 | 51.63127 | -44.80359 | 32986 ft | 506 kts | 82° |
| 2026-05-05 19:42 | 51.64218 | -44.69162 | 32985 ft | 506 kts | 83° |
| 2026-05-05 19:42 | 51.65300 | -44.57931 | 32993 ft | 506 kts | 83° |
| 2026-05-05 19:43 | 51.66364 | -44.46784 | 32999 ft | 506 kts | 83° |
| 2026-05-05 19:43 | 51.67422 | -44.35575 | 32998 ft | 506 kts | 83° |
| 2026-05-05 19:44 | 51.68469 | -44.24364 | 33010 ft | 506 kts | 83° |
| 2026-05-05 19:44 | 51.69506 | -44.13157 | 33016 ft | 505 kts | 83° |
| 2026-05-05 19:45 | 51.70532 | -44.01924 | 33019 ft | 506 kts | 83° |
| 2026-05-05 19:45 | 51.71548 | -43.90691 | 33028 ft | 506 kts | 84° |
| 2026-05-05 19:46 | 51.72552 | -43.79469 | 33026 ft | 506 kts | 84° |
| 2026-05-05 19:46 | 51.73543 | -43.68259 | 33033 ft | 505 kts | 84° |
| 2026-05-05 19:47 | 51.74520 | -43.57094 | 33038 ft | 505 kts | 84° |
| 2026-05-05 19:47 | 51.75489 | -43.45882 | 33040 ft | 505 kts | 84° |
| 2026-05-05 19:48 | 51.76447 | -43.34676 | 33039 ft | 505 kts | 84° |
| 2026-05-05 19:48 | 51.77398 | -43.23433 | 33037 ft | 505 kts | 85° |
| 2026-05-05 19:49 | 51.78335 | -43.12199 | 33044 ft | 505 kts | 85° |
| 2026-05-05 19:49 | 51.79263 | -43.00955 | 33041 ft | 505 kts | 85° |
| 2026-05-05 19:50 | 51.80183 | -42.89665 | 33355 ft | 510 kts | 85° |
| 2026-05-05 19:50 | 51.80643 | -42.83971 | 33803 ft | 514 kts | 85° |
| 2026-05-05 19:50 | 51.81105 | -42.78226 | 34251 ft | 517 kts | 85° |
| 2026-05-05 19:50 | 51.81567 | -42.72442 | 34699 ft | 518 kts | 85° |
| 2026-05-05 19:51 | 51.82026 | -42.66646 | 35009 ft | 520 kts | 85° |
| 2026-05-05 19:51 | 51.82930 | -42.55139 | 35056 ft | 518 kts | 85° |
| 2026-05-05 19:52 | 51.83826 | -42.43574 | 35062 ft | 517 kts | 85° |
| 2026-05-05 19:52 | 51.84710 | -42.32013 | 35065 ft | 518 kts | 85° |
| 2026-05-05 19:53 | 51.85578 | -42.20516 | 35077 ft | 518 kts | 85° |
| 2026-05-05 19:53 | 51.86441 | -42.08925 | 35076 ft | 517 kts | 85° |
| 2026-05-05 19:54 | 51.87291 | -41.97363 | 35077 ft | 517 kts | 85° |
| 2026-05-05 19:54 | 51.88129 | -41.85801 | 35083 ft | 517 kts | 86° |
| 2026-05-05 19:55 | 51.88952 | -41.74278 | 35085 ft | 517 kts | 86° |
| 2026-05-05 19:55 | 51.89768 | -41.62702 | 35086 ft | 517 kts | 86° |
| 2026-05-05 19:56 | 51.90573 | -41.51108 | 35092 ft | 517 kts | 86° |
| 2026-05-05 19:56 | 51.91361 | -41.39587 | 35091 ft | 517 kts | 86° |
| 2026-05-05 19:57 | 51.92141 | -41.28022 | 35092 ft | 517 kts | 86° |
| 2026-05-05 19:57 | 51.92910 | -41.16453 | 35095 ft | 517 kts | 86° |
| 2026-05-05 19:58 | 51.93669 | -41.04848 | 35096 ft | 517 kts | 86° |
| 2026-05-05 19:58 | 51.94414 | -40.93285 | 35102 ft | 516 kts | 87° |
| 2026-05-05 19:59 | 51.95150 | -40.81683 | 35115 ft | 516 kts | 87° |
| 2026-05-05 19:59 | 51.95868 | -40.70185 | 35114 ft | 516 kts | 87° |
| 2026-05-05 20:00 | 51.96586 | -40.58476 | 35126 ft | 519 kts | 87° |
| 2026-05-05 20:00 | 51.97290 | -40.46849 | 35130 ft | 518 kts | 87° |
| 2026-05-05 20:01 | 51.97975 | -40.35305 | 35125 ft | 517 kts | 87° |
| 2026-05-05 20:01 | 51.98653 | -40.23702 | 35123 ft | 516 kts | 88° |
| 2026-05-05 20:02 | 51.99320 | -40.12092 | 35131 ft | 516 kts | 88° |
| 2026-05-05 20:02 | 51.99999 | -40.00497 | 35133 ft | 517 kts | 84° |
| 2026-05-05 20:03 | 52.01590 | -39.89061 | 35143 ft | 519 kts | 79° |
| 2026-05-05 20:03 | 52.03213 | -39.77725 | 35133 ft | 518 kts | 79° |
| 2026-05-05 20:04 | 52.04836 | -39.66359 | 35143 ft | 517 kts | 79° |
| 2026-05-05 20:04 | 52.06453 | -39.54938 | 35141 ft | 517 kts | 79° |
| 2026-05-05 20:05 | 52.08052 | -39.43552 | 35147 ft | 517 kts | 79° |
| 2026-05-05 20:05 | 52.09376 | -39.34069 | 35147 ft | 517 kts | 80° |
| 2026-05-05 20:06 | 52.10948 | -39.22718 | 35150 ft | 514 kts | 80° |
| 2026-05-05 20:06 | 52.12511 | -39.11357 | 35148 ft | 513 kts | 80° |
| 2026-05-05 20:07 | 52.14055 | -39.00032 | 35150 ft | 512 kts | 80° |
| 2026-05-05 20:07 | 52.15592 | -38.88685 | 35150 ft | 512 kts | 80° |
| 2026-05-05 20:08 | 52.17106 | -38.77412 | 35154 ft | 511 kts | 81° |
| 2026-05-05 20:08 | 52.18614 | -38.66105 | 35154 ft | 509 kts | 81° |
| 2026-05-05 20:09 | 52.20105 | -38.54826 | 35152 ft | 509 kts | 81° |
| 2026-05-05 20:09 | 52.21587 | -38.43529 | 35152 ft | 509 kts | 81° |
| 2026-05-05 20:10 | 52.23059 | -38.32224 | 35152 ft | 509 kts | 81° |
| 2026-05-05 20:10 | 52.24510 | -38.20989 | 35165 ft | 507 kts | 81° |
| 2026-05-05 20:11 | 52.25952 | -38.09731 | 35162 ft | 505 kts | 81° |
| 2026-05-05 20:11 | 52.27380 | -37.98488 | 35161 ft | 505 kts | 81° |
| 2026-05-05 20:12 | 52.28795 | -37.87261 | 35162 ft | 505 kts | 81° |
| 2026-05-05 20:12 | 52.30202 | -37.76006 | 35163 ft | 505 kts | 81° |
| 2026-05-05 20:13 | 52.31587 | -37.64838 | 35168 ft | 505 kts | 81° |
| 2026-05-05 20:13 | 52.32973 | -37.53565 | 35167 ft | 505 kts | 82° |
| 2026-05-05 20:14 | 52.34347 | -37.42289 | 35167 ft | 505 kts | 82° |
| 2026-05-05 20:14 | 52.35702 | -37.31084 | 35162 ft | 505 kts | 82° |
| 2026-05-05 20:15 | 52.37059 | -37.19765 | 35172 ft | 506 kts | 82° |
| 2026-05-05 20:15 | 52.38400 | -37.08485 | 35172 ft | 504 kts | 82° |
| 2026-05-05 20:16 | 52.39729 | -36.97201 | 35170 ft | 504 kts | 82° |
| 2026-05-05 20:16 | 52.41046 | -36.85937 | 35168 ft | 504 kts | 82° |
| 2026-05-05 20:17 | 52.42346 | -36.74704 | 35171 ft | 504 kts | 82° |
| 2026-05-05 20:17 | 52.43639 | -36.63437 | 35171 ft | 502 kts | 82° |
| 2026-05-05 20:18 | 52.44917 | -36.52197 | 35172 ft | 501 kts | 82° |
| 2026-05-05 20:18 | 52.46189 | -36.40915 | 35166 ft | 501 kts | 82° |
| 2026-05-05 20:19 | 52.47443 | -36.29696 | 35178 ft | 501 kts | 83° |
| 2026-05-05 20:19 | 52.48688 | -36.18446 | 35156 ft | 501 kts | 83° |
| 2026-05-05 20:20 | 52.49921 | -36.07210 | 35164 ft | 499 kts | 83° |
| 2026-05-05 20:20 | 52.51142 | -35.95981 | 35161 ft | 499 kts | 83° |
| 2026-05-05 20:21 | 52.52353 | -35.84728 | 35162 ft | 499 kts | 83° |
| 2026-05-05 20:21 | 52.53553 | -35.73485 | 35165 ft | 499 kts | 83° |
| 2026-05-05 20:22 | 52.54735 | -35.62304 | 35166 ft | 498 kts | 83° |
| 2026-05-05 20:22 | 52.55908 | -35.51100 | 35159 ft | 497 kts | 83° |
| 2026-05-05 20:23 | 52.57070 | -35.39889 | 35163 ft | 497 kts | 83° |
| 2026-05-05 20:23 | 52.58220 | -35.28690 | 35157 ft | 497 kts | 83° |
| 2026-05-05 20:24 | 52.59354 | -35.17540 | 35155 ft | 497 kts | 83° |
| 2026-05-05 20:24 | 52.60483 | -35.06333 | 35160 ft | 495 kts | 83° |
| 2026-05-05 20:25 | 52.61594 | -34.95185 | 35165 ft | 493 kts | 84° |
| 2026-05-05 20:25 | 52.62694 | -34.84034 | 35152 ft | 493 kts | 83° |
| 2026-05-05 20:26 | 52.63784 | -34.72881 | 35151 ft | 494 kts | 84° |
| 2026-05-05 20:26 | 52.64868 | -34.61685 | 35147 ft | 494 kts | 84° |
| 2026-05-05 20:27 | 52.65930 | -34.50591 | 35146 ft | 492 kts | 84° |
| 2026-05-05 20:27 | 52.66984 | -34.39464 | 35145 ft | 490 kts | 84° |
| 2026-05-05 20:28 | 52.68026 | -34.28358 | 35142 ft | 490 kts | 84° |
| 2026-05-05 20:28 | 52.69058 | -34.17239 | 35144 ft | 491 kts | 84° |
| 2026-05-05 20:29 | 52.70081 | -34.06098 | 35123 ft | 491 kts | 84° |
| 2026-05-05 20:29 | 52.71090 | -33.95002 | 35151 ft | 488 kts | 84° |
| 2026-05-05 20:30 | 52.72082 | -33.83959 | 35148 ft | 486 kts | 84° |
| 2026-05-05 20:30 | 52.73058 | -33.72977 | 35144 ft | 485 kts | 84° |
| 2026-05-05 20:31 | 52.74027 | -33.61960 | 35144 ft | 484 kts | 84° |
| 2026-05-05 20:31 | 52.74993 | -33.50859 | 35145 ft | 488 kts | 84° |
| 2026-05-05 20:32 | 52.75945 | -33.39787 | 35156 ft | 486 kts | 85° |
| 2026-05-05 20:32 | 52.76882 | -33.28771 | 35157 ft | 484 kts | 85° |
| 2026-05-05 20:33 | 52.77802 | -33.17827 | 35157 ft | 482 kts | 85° |
| 2026-05-05 20:33 | 52.78714 | -33.06861 | 35156 ft | 481 kts | 85° |
| 2026-05-05 20:34 | 52.79615 | -32.95897 | 35157 ft | 480 kts | 85° |
| 2026-05-05 20:34 | 52.80501 | -32.84983 | 35154 ft | 478 kts | 85° |
| 2026-05-05 20:35 | 52.81369 | -32.74171 | 35166 ft | 477 kts | 85° |
| 2026-05-05 20:35 | 52.82232 | -32.63289 | 35165 ft | 477 kts | 85° |
| 2026-05-05 20:36 | 52.83085 | -32.52408 | 35166 ft | 477 kts | 85° |
| 2026-05-05 20:36 | 52.83931 | -32.41477 | 35165 ft | 478 kts | 85° |
| 2026-05-05 20:37 | 52.84762 | -32.30604 | 35169 ft | 482 kts | 85° |
| 2026-05-05 20:37 | 52.85595 | -32.19603 | 35175 ft | 480 kts | 85° |
| 2026-05-05 20:38 | 52.86412 | -32.08638 | 35181 ft | 480 kts | 85° |
| 2026-05-05 20:38 | 52.87212 | -31.97783 | 35174 ft | 480 kts | 85° |
| 2026-05-05 20:39 | 52.88013 | -31.86757 | 35174 ft | 480 kts | 85° |
| 2026-05-05 20:39 | 52.88796 | -31.75845 | 35173 ft | 479 kts | 85° |
| 2026-05-05 20:40 | 52.89573 | -31.64879 | 35178 ft | 479 kts | 86° |
| 2026-05-05 20:40 | 52.90338 | -31.53924 | 35183 ft | 479 kts | 86° |
| 2026-05-05 20:41 | 52.91093 | -31.42973 | 35183 ft | 479 kts | 86° |
| 2026-05-05 20:41 | 52.91838 | -31.31996 | 35194 ft | 480 kts | 85° |
| 2026-05-05 20:42 | 52.92577 | -31.20992 | 35202 ft | 480 kts | 85° |
| 2026-05-05 20:42 | 52.93302 | -31.10000 | 35191 ft | 480 kts | 85° |
| 2026-05-05 20:43 | 52.94021 | -30.98987 | 35197 ft | 481 kts | 85° |
| 2026-05-05 20:43 | 52.94729 | -30.87944 | 35197 ft | 481 kts | 85° |
| 2026-05-05 20:44 | 52.95428 | -30.76888 | 35202 ft | 484 kts | 85° |
| 2026-05-05 20:44 | 52.96121 | -30.65766 | 35203 ft | 483 kts | 85° |
| 2026-05-05 20:45 | 52.97132 | -30.49214 | 35207 ft | 483 kts | 85° |
| 2026-05-05 20:45 | 52.97795 | -30.38155 | 35206 ft | 482 kts | 85° |
| 2026-05-05 20:46 | 52.98449 | -30.27069 | 35215 ft | 482 kts | 85° |
| 2026-05-05 20:46 | 52.99093 | -30.15968 | 35210 ft | 484 kts | 85° |
| 2026-05-05 20:47 | 52.99728 | -30.04849 | 35213 ft | 484 kts | 85° |
| 2026-05-05 20:47 | 53.00859 | -29.93825 | 35229 ft | 486 kts | 76° |
| 2026-05-05 20:48 | 53.02481 | -29.82949 | 35232 ft | 484 kts | 77° |
| 2026-05-05 20:48 | 53.03994 | -29.72117 | 35238 ft | 486 kts | 76° |
| 2026-05-05 20:49 | 53.05570 | -29.61146 | 35236 ft | 485 kts | 76° |
| 2026-05-05 20:49 | 53.07086 | -29.50306 | 35238 ft | 484 kts | 76° |
| 2026-05-05 20:50 | 53.08361 | -29.41222 | 35238 ft | 484 kts | 76° |
| 2026-05-05 20:50 | 53.10130 | -29.28476 | 35241 ft | 484 kts | 76° |
| 2026-05-05 20:51 | 53.11384 | -29.19379 | 35243 ft | 484 kts | 76° |
| 2026-05-05 20:51 | 53.12880 | -29.08460 | 35244 ft | 483 kts | 76° |
| 2026-05-05 20:52 | 53.14362 | -28.97553 | 35244 ft | 483 kts | 76° |
| 2026-05-05 20:52 | 53.15838 | -28.86623 | 35248 ft | 483 kts | 76° |
| 2026-05-05 20:53 | 53.17301 | -28.75692 | 35250 ft | 483 kts | 76° |
| 2026-05-05 20:53 | 53.18758 | -28.64732 | 35253 ft | 484 kts | 76° |
| 2026-05-05 20:54 | 53.20204 | -28.53766 | 35251 ft | 484 kts | 76° |
| 2026-05-05 20:54 | 53.21633 | -28.42854 | 35252 ft | 484 kts | 76° |
| 2026-05-05 20:55 | 53.23060 | -28.31865 | 35258 ft | 484 kts | 76° |
| 2026-05-05 20:55 | 53.24477 | -28.20869 | 35252 ft | 484 kts | 75° |
| 2026-05-05 20:56 | 53.25885 | -28.09869 | 35246 ft | 484 kts | 75° |
| 2026-05-05 20:56 | 53.27280 | -27.98864 | 35243 ft | 484 kts | 76° |
| 2026-05-05 20:57 | 53.28667 | -27.87851 | 35250 ft | 484 kts | 76° |
| 2026-05-05 20:57 | 53.30044 | -27.76824 | 35249 ft | 484 kts | 76° |
| 2026-05-05 20:58 | 53.31401 | -27.65869 | 35256 ft | 484 kts | 75° |
| 2026-05-05 20:58 | 53.32759 | -27.54820 | 35263 ft | 485 kts | 75° |
| 2026-05-05 20:59 | 53.34106 | -27.43762 | 35257 ft | 484 kts | 75° |
| 2026-05-05 20:59 | 53.35441 | -27.32723 | 35257 ft | 484 kts | 75° |
| 2026-05-05 21:00 | 53.36768 | -27.21651 | 35257 ft | 485 kts | 76° |
| 2026-05-05 21:00 | 53.38086 | -27.10567 | 35259 ft | 485 kts | 76° |
| 2026-05-05 21:01 | 53.39391 | -26.99493 | 35258 ft | 485 kts | 76° |
| 2026-05-05 21:01 | 53.40680 | -26.88464 | 35266 ft | 485 kts | 76° |
| 2026-05-05 21:02 | 53.41963 | -26.77392 | 35257 ft | 485 kts | 76° |
| 2026-05-05 21:02 | 53.43239 | -26.66278 | 35257 ft | 485 kts | 76° |
| 2026-05-05 21:03 | 53.44504 | -26.55191 | 35261 ft | 484 kts | 76° |
| 2026-05-05 21:03 | 53.45758 | -26.44070 | 35260 ft | 484 kts | 76° |
| 2026-05-05 21:04 | 53.47003 | -26.32951 | 35257 ft | 484 kts | 76° |
| 2026-05-05 21:04 | 53.48235 | -26.21838 | 35258 ft | 484 kts | 76° |
| 2026-05-05 21:05 | 53.49459 | -26.10708 | 35255 ft | 484 kts | 76° |
| 2026-05-05 21:05 | 53.50669 | -25.99594 | 35255 ft | 483 kts | 76° |
| 2026-05-05 21:06 | 53.51861 | -25.88555 | 35258 ft | 483 kts | 76° |
| 2026-05-05 21:06 | 53.53050 | -25.77440 | 35258 ft | 483 kts | 76° |
| 2026-05-05 21:07 | 53.54237 | -25.66237 | 35284 ft | 484 kts | 76° |
| 2026-05-05 21:07 | 53.55392 | -25.55228 | 35251 ft | 480 kts | 76° |
| 2026-05-05 21:08 | 53.56544 | -25.44167 | 35247 ft | 479 kts | 76° |
| 2026-05-05 21:08 | 53.57680 | -25.33128 | 35245 ft | 478 kts | 76° |
| 2026-05-05 21:09 | 53.58807 | -25.22095 | 35239 ft | 478 kts | 76° |
| 2026-05-05 21:09 | 53.59922 | -25.11058 | 35249 ft | 478 kts | 76° |
| 2026-05-05 21:10 | 53.61023 | -25.00063 | 35254 ft | 476 kts | 76° |
| 2026-05-05 21:10 | 53.62116 | -24.89043 | 35251 ft | 476 kts | 76° |
| 2026-05-05 21:11 | 53.63195 | -24.78052 | 35251 ft | 476 kts | 76° |
| 2026-05-05 21:11 | 53.64263 | -24.67066 | 35252 ft | 476 kts | 76° |
| 2026-05-05 21:12 | 53.65322 | -24.56056 | 35241 ft | 475 kts | 76° |
| 2026-05-05 21:12 | 53.66369 | -24.45073 | 35241 ft | 474 kts | 76° |
| 2026-05-05 21:13 | 53.67406 | -24.34080 | 35238 ft | 474 kts | 76° |
| 2026-05-05 21:13 | 53.68426 | -24.23157 | 35238 ft | 474 kts | 76° |
| 2026-05-05 21:14 | 53.69441 | -24.12170 | 35239 ft | 474 kts | 76° |
| 2026-05-05 21:14 | 53.70448 | -24.01157 | 35248 ft | 474 kts | 76° |
| 2026-05-05 21:15 | 53.71440 | -23.90185 | 35246 ft | 473 kts | 76° |
| 2026-05-05 21:15 | 53.72423 | -23.79208 | 35244 ft | 473 kts | 76° |
| 2026-05-05 21:16 | 53.73397 | -23.68210 | 35242 ft | 473 kts | 77° |
| 2026-05-05 21:16 | 53.74360 | -23.57223 | 35267 ft | 473 kts | 77° |
| 2026-05-05 21:17 | 53.75311 | -23.46238 | 35238 ft | 471 kts | 77° |
| 2026-05-05 21:17 | 53.76251 | -23.35286 | 35233 ft | 470 kts | 77° |
| 2026-05-05 21:18 | 53.77171 | -23.24426 | 35232 ft | 470 kts | 77° |
| 2026-05-05 21:18 | 53.78093 | -23.13428 | 35234 ft | 470 kts | 77° |
| 2026-05-05 21:19 | 53.78995 | -23.02539 | 35252 ft | 470 kts | 77° |
| 2026-05-05 21:19 | 53.79893 | -22.91586 | 35230 ft | 469 kts | 77° |
| 2026-05-05 21:20 | 53.80779 | -22.80637 | 35227 ft | 469 kts | 77° |
| 2026-05-05 21:20 | 53.81655 | -22.69700 | 35227 ft | 469 kts | 77° |
| 2026-05-05 21:21 | 53.82521 | -22.58753 | 35224 ft | 469 kts | 77° |
| 2026-05-05 21:21 | 53.83373 | -22.47849 | 35228 ft | 469 kts | 77° |
| 2026-05-05 21:22 | 53.84219 | -22.36890 | 35230 ft | 469 kts | 77° |
| 2026-05-05 21:22 | 53.85056 | -22.25920 | 35227 ft | 469 kts | 77° |
| 2026-05-05 21:23 | 53.85878 | -22.15006 | 35226 ft | 469 kts | 78° |
| 2026-05-05 21:23 | 53.86698 | -22.03983 | 35223 ft | 469 kts | 78° |
| 2026-05-05 21:24 | 53.87500 | -21.93062 | 35226 ft | 470 kts | 78° |
| 2026-05-05 21:24 | 53.88298 | -21.82055 | 35223 ft | 469 kts | 78° |
| 2026-05-05 21:25 | 53.89084 | -21.71071 | 35225 ft | 469 kts | 78° |
| 2026-05-05 21:25 | 53.89861 | -21.60076 | 35225 ft | 470 kts | 78° |
| 2026-05-05 21:26 | 53.90623 | -21.49134 | 35221 ft | 469 kts | 78° |
| 2026-05-05 21:26 | 53.91380 | -21.38133 | 35221 ft | 470 kts | 78° |
| 2026-05-05 21:27 | 53.92127 | -21.27116 | 35217 ft | 469 kts | 78° |
| 2026-05-05 21:27 | 53.92864 | -21.16106 | 35218 ft | 470 kts | 78° |
| 2026-05-05 21:28 | 53.93590 | -21.05083 | 35219 ft | 470 kts | 78° |
| 2026-05-05 21:28 | 53.94307 | -20.94051 | 35216 ft | 470 kts | 78° |
| 2026-05-05 21:29 | 53.95015 | -20.83001 | 35220 ft | 470 kts | 79° |
| 2026-05-05 21:29 | 53.95706 | -20.72052 | 35217 ft | 469 kts | 79° |
| 2026-05-05 21:30 | 53.96393 | -20.61014 | 35217 ft | 470 kts | 79° |
| 2026-05-05 21:30 | 53.97069 | -20.49966 | 35215 ft | 470 kts | 79° |
| 2026-05-05 21:31 | 53.97734 | -20.38945 | 35218 ft | 469 kts | 79° |
| 2026-05-05 21:31 | 53.98390 | -20.27897 | 35212 ft | 470 kts | 79° |
| 2026-05-05 21:32 | 53.99038 | -20.16816 | 35206 ft | 470 kts | 79° |
| 2026-05-05 21:32 | 53.99671 | -20.05821 | 35206 ft | 470 kts | 80° |
| 2026-05-05 21:33 | 54.00117 | -19.94682 | 35207 ft | 473 kts | 83° |
| 2026-05-05 21:33 | 54.00329 | -19.83491 | 35224 ft | 473 kts | 84° |
| 2026-05-05 21:34 | 54.00545 | -19.72374 | 35207 ft | 473 kts | 84° |
| 2026-05-05 21:34 | 54.00743 | -19.61174 | 35212 ft | 473 kts | 84° |
| 2026-05-05 21:35 | 54.00936 | -19.49964 | 35213 ft | 473 kts | 84° |
| 2026-05-05 21:35 | 54.01116 | -19.38763 | 35206 ft | 474 kts | 84° |
| 2026-05-05 21:36 | 54.01287 | -19.27572 | 35215 ft | 474 kts | 84° |
| 2026-05-05 21:36 | 54.01447 | -19.16352 | 35209 ft | 474 kts | 84° |
| 2026-05-05 21:37 | 54.01596 | -19.05209 | 35209 ft | 474 kts | 84° |
| 2026-05-05 21:37 | 54.01736 | -18.93985 | 35212 ft | 475 kts | 85° |
| 2026-05-05 21:38 | 54.01844 | -18.84537 | 35206 ft | 476 kts | 85° |
| 2026-05-05 21:38 | 54.01964 | -18.73352 | 35209 ft | 476 kts | 85° |
| 2026-05-05 21:39 | 54.02075 | -18.62030 | 35209 ft | 478 kts | 86° |
| 2026-05-05 21:39 | 54.02174 | -18.50712 | 35200 ft | 478 kts | 86° |
| 2026-05-05 21:40 | 54.02264 | -18.39415 | 35201 ft | 478 kts | 86° |
| 2026-05-05 21:40 | 54.02342 | -18.28169 | 35198 ft | 478 kts | 86° |
| 2026-05-05 21:41 | 54.02410 | -18.16881 | 35196 ft | 479 kts | 86° |
| 2026-05-05 21:41 | 54.02467 | -18.05513 | 35203 ft | 481 kts | 86° |
| 2026-05-05 21:42 | 54.02514 | -17.94145 | 35205 ft | 480 kts | 86° |
| 2026-05-05 21:42 | 54.02551 | -17.82790 | 35201 ft | 480 kts | 87° |
| 2026-05-05 21:43 | 54.02576 | -17.71410 | 35198 ft | 480 kts | 87° |
| 2026-05-05 21:43 | 54.02592 | -17.60132 | 35198 ft | 483 kts | 87° |
| 2026-05-05 21:44 | 54.02595 | -17.48710 | 35201 ft | 483 kts | 88° |
| 2026-05-05 21:44 | 54.02589 | -17.37287 | 35200 ft | 482 kts | 88° |
| 2026-05-05 21:45 | 54.02571 | -17.25876 | 35203 ft | 482 kts | 88° |
| 2026-05-05 21:45 | 54.02543 | -17.14454 | 35199 ft | 484 kts | 88° |
| 2026-05-05 21:46 | 54.02504 | -17.03011 | 35201 ft | 485 kts | 89° |
| 2026-05-05 21:46 | 54.02453 | -16.91517 | 35201 ft | 485 kts | 89° |
| 2026-05-05 21:47 | 54.02393 | -16.80054 | 35197 ft | 485 kts | 89° |
| 2026-05-05 21:47 | 54.02320 | -16.68581 | 35196 ft | 485 kts | 89° |
| 2026-05-05 21:48 | 54.02238 | -16.57122 | 35191 ft | 485 kts | 89° |
| 2026-05-05 21:48 | 54.02144 | -16.45715 | 35190 ft | 485 kts | 89° |
| 2026-05-05 21:49 | 54.02039 | -16.34242 | 35193 ft | 485 kts | 89° |
| 2026-05-05 21:49 | 54.01932 | -16.23552 | 35192 ft | 485 kts | 89° |
| 2026-05-05 21:50 | 54.01806 | -16.12094 | 35192 ft | 485 kts | 89° |
| 2026-05-05 21:50 | 54.01670 | -16.00628 | 35197 ft | 485 kts | 89° |
| 2026-05-05 21:51 | 54.01522 | -15.89115 | 35190 ft | 487 kts | 90° |
| 2026-05-05 21:51 | 54.01362 | -15.77619 | 35190 ft | 486 kts | 90° |
| 2026-05-05 21:52 | 54.01104 | -15.60447 | 35195 ft | 486 kts | 90° |
| 2026-05-05 21:53 | 54.00918 | -15.48957 | 35195 ft | 486 kts | 90° |
| 2026-05-05 21:53 | 54.00720 | -15.37377 | 35192 ft | 489 kts | 91° |
| 2026-05-05 21:54 | 54.00511 | -15.25905 | 35194 ft | 488 kts | 91° |
| 2026-05-05 21:54 | 54.00291 | -15.14362 | 35191 ft | 488 kts | 91° |
| 2026-05-05 21:55 | 54.00060 | -15.02832 | 35186 ft | 488 kts | 91° |
| 2026-05-05 21:55 | 54.00051 | -14.91314 | 35188 ft | 488 kts | 89° |
| 2026-05-05 21:56 | 54.00059 | -14.79763 | 35179 ft | 489 kts | 89° |
| 2026-05-05 21:56 | 54.00097 | -14.68195 | 35183 ft | 489 kts | 89° |
| 2026-05-05 21:57 | 54.00101 | -14.56628 | 35184 ft | 489 kts | 89° |
| 2026-05-05 21:57 | 54.00106 | -14.45156 | 35173 ft | 489 kts | 89° |
| 2026-05-05 21:58 | 54.00094 | -14.33606 | 35191 ft | 489 kts | 89° |
| 2026-05-05 21:58 | 54.00073 | -14.22004 | 35178 ft | 491 kts | 89° |
| 2026-05-05 21:59 | 54.00040 | -14.10411 | 35179 ft | 490 kts | 90° |
| 2026-05-05 21:59 | 53.99977 | -13.98815 | 35172 ft | 490 kts | 92° |
| 2026-05-05 22:00 | 53.99752 | -13.87217 | 35177 ft | 490 kts | 91° |
| 2026-05-05 22:00 | 53.99528 | -13.75694 | 35173 ft | 492 kts | 92° |
| 2026-05-05 22:01 | 53.99271 | -13.64088 | 35176 ft | 492 kts | 91° |
| 2026-05-05 22:01 | 53.99022 | -13.52468 | 35181 ft | 492 kts | 92° |
| 2026-05-05 22:02 | 53.98748 | -13.40903 | 35169 ft | 491 kts | 92° |
| 2026-05-05 22:02 | 53.98473 | -13.29298 | 35167 ft | 491 kts | 92° |
| 2026-05-05 22:03 | 53.98178 | -13.17668 | 35171 ft | 492 kts | 92° |
| 2026-05-05 22:03 | 53.97877 | -13.06050 | 35169 ft | 492 kts | 92° |
| 2026-05-05 22:04 | 53.97562 | -12.94418 | 35171 ft | 492 kts | 92° |
| 2026-05-05 22:04 | 53.97237 | -12.82793 | 35171 ft | 492 kts | 92° |
| 2026-05-05 22:05 | 53.96903 | -12.71249 | 35169 ft | 492 kts | 92° |
| 2026-05-05 22:05 | 53.96555 | -12.59612 | 35156 ft | 493 kts | 93° |
| 2026-05-05 22:06 | 53.96195 | -12.47959 | 35156 ft | 493 kts | 93° |
| 2026-05-05 22:06 | 53.95833 | -12.36594 | 35156 ft | 493 kts | 93° |
| 2026-05-05 22:07 | 53.95453 | -12.25025 | 35158 ft | 493 kts | 93° |
| 2026-05-05 22:07 | 53.95061 | -12.13406 | 35158 ft | 493 kts | 93° |
| 2026-05-05 22:08 | 53.94656 | -12.01762 | 35152 ft | 493 kts | 94° |
| 2026-05-05 22:08 | 53.94241 | -11.90127 | 35152 ft | 493 kts | 94° |
| 2026-05-05 22:09 | 53.93814 | -11.78505 | 35147 ft | 493 kts | 94° |
| 2026-05-05 22:09 | 53.93376 | -11.66880 | 35147 ft | 494 kts | 94° |
| 2026-05-05 22:10 | 53.92929 | -11.55312 | 35156 ft | 494 kts | 94° |
| 2026-05-05 22:10 | 53.92468 | -11.43680 | 35148 ft | 494 kts | 94° |
| 2026-05-05 22:11 | 53.91995 | -11.32018 | 35140 ft | 494 kts | 94° |
| 2026-05-05 22:11 | 53.91512 | -11.20393 | 35147 ft | 494 kts | 94° |
| 2026-05-05 22:12 | 53.91017 | -11.08764 | 35144 ft | 494 kts | 94° |
| 2026-05-05 22:12 | 53.90515 | -10.97210 | 35144 ft | 494 kts | 94° |
| 2026-05-05 22:13 | 53.89997 | -10.85570 | 35149 ft | 494 kts | 95° |
| 2026-05-05 22:13 | 53.89468 | -10.73941 | 35147 ft | 494 kts | 95° |
| 2026-05-05 22:14 | 53.88929 | -10.62333 | 35151 ft | 494 kts | 95° |
| 2026-05-05 22:14 | 53.88381 | -10.50778 | 35129 ft | 494 kts | 95° |
| 2026-05-05 22:15 | 53.87819 | -10.39171 | 35129 ft | 494 kts | 95° |
| 2026-05-05 22:15 | 53.87246 | -10.27551 | 35130 ft | 494 kts | 95° |
| 2026-05-05 22:16 | 53.86661 | -10.15950 | 35130 ft | 494 kts | 95° |
| 2026-05-05 22:16 | 53.86070 | -10.04419 | 35131 ft | 494 kts | 95° |
| 2026-05-05 22:17 | 53.85463 | -9.92830 | 35136 ft | 494 kts | 95° |
| 2026-05-05 22:17 | 53.84845 | -9.81221 | 35134 ft | 494 kts | 95° |
| 2026-05-05 22:18 | 53.84216 | -9.69628 | 35135 ft | 494 kts | 96° |
| 2026-05-05 22:18 | 53.83579 | -9.58104 | 35136 ft | 494 kts | 96° |
| 2026-05-05 22:19 | 53.82928 | -9.46514 | 35131 ft | 494 kts | 96° |
| 2026-05-05 22:19 | 53.82266 | -9.34944 | 35140 ft | 494 kts | 96° |
| 2026-05-05 22:20 | 53.81591 | -9.23349 | 35141 ft | 494 kts | 96° |
| 2026-05-05 22:20 | 53.80911 | -9.11849 | 35134 ft | 494 kts | 96° |
| 2026-05-05 22:21 | 53.80215 | -9.00278 | 35137 ft | 494 kts | 96° |
| 2026-05-05 22:21 | 53.79507 | -8.88694 | 35133 ft | 494 kts | 96° |
| 2026-05-05 22:22 | 53.78791 | -8.77158 | 35133 ft | 493 kts | 96° |
| 2026-05-05 22:22 | 53.78062 | -8.65615 | 35129 ft | 493 kts | 96° |
| 2026-05-05 22:23 | 53.77327 | -8.54140 | 35129 ft | 493 kts | 96° |
| 2026-05-05 22:23 | 53.76577 | -8.42609 | 35131 ft | 493 kts | 97° |
| 2026-05-05 22:24 | 53.75815 | -8.31064 | 35124 ft | 491 kts | 97° |
| 2026-05-05 22:24 | 53.75050 | -8.19649 | 35110 ft | 489 kts | 97° |
| 2026-05-05 22:25 | 53.74274 | -8.08242 | 35100 ft | 489 kts | 97° |
| 2026-05-05 22:25 | 53.73486 | -7.96816 | 35113 ft | 489 kts | 97° |
| 2026-05-05 22:26 | 53.72694 | -7.85482 | 35106 ft | 488 kts | 97° |
| 2026-05-05 22:26 | 53.71888 | -7.74125 | 35106 ft | 486 kts | 97° |
| 2026-05-05 22:27 | 53.71074 | -7.62794 | 35102 ft | 486 kts | 97° |
| 2026-05-05 22:27 | 53.70278 | -7.51867 | 35099 ft | 486 kts | 97° |
| 2026-05-05 22:28 | 53.69442 | -7.40531 | 35095 ft | 486 kts | 97° |
| 2026-05-05 22:28 | 53.68738 | -7.31105 | 35095 ft | 486 kts | 97° |
| 2026-05-05 22:29 | 53.67887 | -7.19844 | 35100 ft | 486 kts | 98° |
| 2026-05-05 22:29 | 53.67016 | -7.08469 | 35100 ft | 486 kts | 98° |
| 2026-05-05 22:30 | 53.66146 | -6.97243 | 35092 ft | 485 kts | 98° |
| 2026-05-05 22:30 | 53.65260 | -6.85956 | 35088 ft | 485 kts | 98° |
| 2026-05-05 22:31 | 53.64361 | -6.74642 | 35094 ft | 486 kts | 98° |
| 2026-05-05 22:31 | 53.63480 | -6.63686 | 35086 ft | 486 kts | 98° |
| 2026-05-05 22:32 | 53.62564 | -6.52427 | 35087 ft | 486 kts | 98° |
| 2026-05-05 22:32 | 53.61635 | -6.41143 | 35084 ft | 486 kts | 98° |
| 2026-05-05 22:33 | 53.60694 | -6.29853 | 35090 ft | 486 kts | 98° |
| 2026-05-05 22:33 | 53.59750 | -6.18651 | 35076 ft | 486 kts | 98° |
| 2026-05-05 22:34 | 53.58787 | -6.07372 | 35071 ft | 486 kts | 98° |
| 2026-05-05 22:34 | 53.57817 | -5.96118 | 35070 ft | 485 kts | 99° |
| 2026-05-05 22:35 | 53.56839 | -5.84912 | 35065 ft | 485 kts | 99° |
| 2026-05-05 22:35 | 53.55849 | -5.73682 | 35065 ft | 485 kts | 99° |
| 2026-05-05 22:36 | 53.54854 | -5.62537 | 35069 ft | 485 kts | 99° |
| 2026-05-05 22:36 | 53.53843 | -5.51293 | 35068 ft | 484 kts | 98° |
| 2026-05-05 22:37 | 53.53476 | -5.39996 | 35077 ft | 485 kts | 92° |
| 2026-05-05 22:37 | 53.53209 | -5.28651 | 35080 ft | 485 kts | 93° |
| 2026-05-05 22:38 | 53.52906 | -5.17333 | 35077 ft | 485 kts | 92° |
| 2026-05-05 22:38 | 53.52576 | -5.05999 | 35071 ft | 485 kts | 94° |
| 2026-05-05 22:39 | 53.52202 | -4.94744 | 35069 ft | 485 kts | 93° |
| 2026-05-05 22:39 | 53.51841 | -4.83403 | 35074 ft | 485 kts | 94° |
| 2026-05-05 22:40 | 53.51458 | -4.72083 | 35067 ft | 485 kts | 94° |
| 2026-05-05 22:40 | 53.51074 | -4.60757 | 35066 ft | 484 kts | 94° |
| 2026-05-05 22:41 | 53.50673 | -4.49466 | 35067 ft | 484 kts | 94° |
| 2026-05-05 22:41 | 53.50269 | -4.38239 | 35069 ft | 484 kts | 94° |
| 2026-05-05 22:42 | 53.49849 | -4.26948 | 35060 ft | 484 kts | 94° |
| 2026-05-05 22:42 | 53.49419 | -4.15661 | 35066 ft | 484 kts | 94° |
| 2026-05-05 22:43 | 53.48979 | -4.04381 | 35058 ft | 482 kts | 94° |
| 2026-05-05 22:43 | 53.48164 | -3.93297 | 35071 ft | 481 kts | 107° |
| 2026-05-05 22:44 | 53.45897 | -3.82762 | 35065 ft | 480 kts | 112° |
| 2026-05-05 22:44 | 53.43687 | -3.72173 | 35063 ft | 481 kts | 109° |
| 2026-05-05 22:45 | 53.41552 | -3.61546 | 35066 ft | 481 kts | 105° |
| 2026-05-05 22:45 | 53.40757 | -3.50445 | 35057 ft | 481 kts | 92° |
| 2026-05-05 22:46 | 53.40464 | -3.39230 | 35064 ft | 481 kts | 96° |
| 2026-05-05 22:46 | 53.39833 | -3.28145 | 35070 ft | 481 kts | 94° |
| 2026-05-05 22:47 | 53.39387 | -3.16961 | 35074 ft | 481 kts | 95° |
| 2026-05-05 22:47 | 53.38958 | -3.06060 | 35076 ft | 481 kts | 95° |
| 2026-05-05 22:48 | 53.38484 | -2.94883 | 35083 ft | 481 kts | 94° |
| 2026-05-05 22:48 | 53.38088 | -2.83681 | 35086 ft | 481 kts | 94° |
| 2026-05-05 22:49 | 53.37631 | -2.72579 | 35071 ft | 481 kts | 94° |
| 2026-05-05 22:49 | 53.37192 | -2.61384 | 35074 ft | 480 kts | 94° |
| 2026-05-05 22:50 | 53.36726 | -2.50213 | 35076 ft | 481 kts | 95° |
| 2026-05-05 22:50 | 53.36256 | -2.39020 | 35082 ft | 481 kts | 95° |
| 2026-05-05 22:51 | 53.35773 | -2.27828 | 35086 ft | 481 kts | 95° |
| 2026-05-05 22:51 | 53.34763 | -2.16854 | 35082 ft | 480 kts | 101° |
| 2026-05-05 22:52 | 53.33611 | -2.05814 | 35081 ft | 481 kts | 101° |
| 2026-05-05 22:52 | 53.32485 | -1.94784 | 35075 ft | 481 kts | 101° |
| 2026-05-05 22:53 | 53.31327 | -1.83783 | 35066 ft | 481 kts | 101° |
| 2026-05-05 22:53 | 53.30171 | -1.72761 | 35068 ft | 481 kts | 101° |
| 2026-05-05 22:54 | 53.29004 | -1.61825 | 35068 ft | 481 kts | 101° |
| 2026-05-05 22:54 | 53.27845 | -1.51036 | 35063 ft | 479 kts | 101° |
| 2026-05-05 22:55 | 53.26662 | -1.40148 | 35058 ft | 475 kts | 101° |
| 2026-05-05 22:55 | 53.25484 | -1.29383 | 35055 ft | 474 kts | 101° |
| 2026-05-05 22:56 | 53.24285 | -1.18547 | 35056 ft | 473 kts | 101° |
| 2026-05-05 22:56 | 53.23085 | -1.07764 | 35053 ft | 473 kts | 101° |
| 2026-05-05 22:57 | 53.21870 | -0.96964 | 35048 ft | 472 kts | 101° |
| 2026-05-05 22:57 | 53.20651 | -0.86206 | 35045 ft | 472 kts | 101° |
| 2026-05-05 22:58 | 53.19420 | -0.75450 | 35041 ft | 472 kts | 102° |
| 2026-05-05 22:58 | 53.18188 | -0.64766 | 35043 ft | 472 kts | 102° |
| 2026-05-05 22:59 | 53.16934 | -0.53987 | 35044 ft | 472 kts | 102° |
| 2026-05-05 22:59 | 53.15675 | -0.43252 | 35043 ft | 472 kts | 102° |
| 2026-05-05 23:00 | 53.13764 | -0.27125 | 35014 ft | 472 kts | 102° |
| 2026-05-05 23:00 | 53.12487 | -0.16462 | 35014 ft | 472 kts | 102° |
| 2026-05-05 23:01 | 53.11192 | -0.05731 | 35018 ft | 472 kts | 102° |
| 2026-05-05 23:01 | 53.09916 | 0.04772 | 35030 ft | 473 kts | 103° |
| 2026-05-05 23:02 | 53.08597 | 0.15518 | 35032 ft | 473 kts | 103° |
| 2026-05-05 23:02 | 53.07273 | 0.26241 | 35021 ft | 473 kts | 103° |
| 2026-05-05 23:03 | 53.05945 | 0.36896 | 35025 ft | 473 kts | 103° |
| 2026-05-05 23:03 | 53.04600 | 0.47611 | 35016 ft | 473 kts | 103° |
| 2026-05-05 23:04 | 53.03251 | 0.58281 | 35014 ft | 472 kts | 104° |
| 2026-05-05 23:04 | 53.01890 | 0.68954 | 35011 ft | 472 kts | 104° |
| 2026-05-05 23:05 | 53.00518 | 0.79636 | 35002 ft | 472 kts | 104° |
| 2026-05-05 23:05 | 52.99147 | 0.90222 | 35002 ft | 472 kts | 104° |
| 2026-05-05 23:06 | 52.97771 | 1.00881 | 35000 ft | 472 kts | 102° |
| 2026-05-05 23:06 | 52.96548 | 1.11589 | 34996 ft | 472 kts | 104° |
| 2026-05-05 23:07 | 52.95299 | 1.22284 | 34985 ft | 472 kts | 103° |
| 2026-05-05 23:07 | 52.94092 | 1.32712 | 34992 ft | 472 kts | 104° |
| 2026-05-05 23:08 | 52.92828 | 1.43392 | 34986 ft | 472 kts | 103° |
| 2026-05-05 23:08 | 52.91568 | 1.54074 | 34982 ft | 471 kts | 104° |
| 2026-05-05 23:09 | 52.90298 | 1.64650 | 34983 ft | 470 kts | 104° |
| 2026-05-05 23:09 | 52.89019 | 1.75286 | 34980 ft | 470 kts | 104° |
| 2026-05-05 23:10 | 52.87727 | 1.85913 | 34979 ft | 470 kts | 104° |
| 2026-05-05 23:10 | 52.86435 | 1.96465 | 34981 ft | 470 kts | 104° |
| 2026-05-05 23:11 | 52.85130 | 2.07049 | 34985 ft | 469 kts | 105° |
| 2026-05-05 23:11 | 52.83812 | 2.17635 | 34984 ft | 469 kts | 105° |
| 2026-05-05 23:12 | 52.82489 | 2.28195 | 34981 ft | 469 kts | 105° |
| 2026-05-05 23:12 | 52.81153 | 2.38767 | 34980 ft | 469 kts | 105° |
| 2026-05-05 23:13 | 52.79808 | 2.49337 | 34974 ft | 469 kts | 105° |
| 2026-05-05 23:13 | 52.78464 | 2.59808 | 34962 ft | 468 kts | 105° |
| 2026-05-05 23:14 | 52.77105 | 2.70302 | 34963 ft | 468 kts | 105° |
| 2026-05-05 23:14 | 52.75771 | 2.80547 | 34965 ft | 468 kts | 105° |
| 2026-05-05 23:15 | 52.74396 | 2.91047 | 34964 ft | 468 kts | 105° |
| 2026-05-05 23:15 | 52.72839 | 3.01398 | 34960 ft | 463 kts | 115° |
| 2026-05-05 23:16 | 52.70522 | 3.11249 | 34962 ft | 458 kts | 114° |
| 2026-05-05 23:16 | 52.68221 | 3.21052 | 34956 ft | 458 kts | 114° |
| 2026-05-05 23:17 | 52.65908 | 3.30831 | 34959 ft | 458 kts | 115° |
| 2026-05-05 23:17 | 52.63699 | 3.40668 | 34973 ft | 460 kts | 109° |
| 2026-05-05 23:18 | 52.62261 | 3.49105 | 34964 ft | 460 kts | 109° |
| 2026-05-05 23:18 | 52.60518 | 3.59200 | 34955 ft | 457 kts | 109° |
| 2026-05-05 23:19 | 52.58778 | 3.69240 | 34946 ft | 458 kts | 109° |
| 2026-05-05 23:19 | 52.57020 | 3.79324 | 34950 ft | 458 kts | 109° |
| 2026-05-05 23:20 | 52.55259 | 3.89370 | 34944 ft | 457 kts | 109° |
| 2026-05-05 23:20 | 52.53499 | 3.99352 | 34919 ft | 457 kts | 109° |
| 2026-05-05 23:21 | 52.51727 | 4.09344 | 34928 ft | 455 kts | 110° |
| 2026-05-05 23:21 | 52.49956 | 4.19278 | 34917 ft | 455 kts | 110° |
| 2026-05-05 23:22 | 52.48168 | 4.29257 | 34919 ft | 455 kts | 110° |
| 2026-05-05 23:22 | 52.46369 | 4.39234 | 34912 ft | 455 kts | 110° |
| 2026-05-05 23:23 | 52.44579 | 4.49111 | 34911 ft | 455 kts | 110° |
| 2026-05-05 23:23 | 52.42769 | 4.59046 | 34897 ft | 453 kts | 110° |
| 2026-05-05 23:24 | 52.40953 | 4.68959 | 34903 ft | 453 kts | 110° |
| 2026-05-05 23:24 | 52.39143 | 4.78785 | 34906 ft | 453 kts | 110° |
| 2026-05-05 23:25 | 52.37312 | 4.88675 | 34908 ft | 453 kts | 110° |
| 2026-05-05 23:25 | 52.35475 | 4.98543 | 34909 ft | 452 kts | 110° |
| 2026-05-05 23:26 | 52.33644 | 5.08327 | 34905 ft | 452 kts | 109° |
| 2026-05-05 23:26 | 52.32209 | 5.18377 | 34915 ft | 454 kts | 106° |
| 2026-05-05 23:27 | 52.30801 | 5.28458 | 34914 ft | 454 kts | 106° |
| 2026-05-05 23:27 | 52.29398 | 5.38449 | 34916 ft | 454 kts | 106° |
| 2026-05-05 23:28 | 52.27972 | 5.48544 | 35076 ft | 457 kts | 107° |
| 2026-05-05 23:28 | 52.27250 | 5.53610 | 35390 ft | 461 kts | 106° |
| 2026-05-05 23:28 | 52.26521 | 5.58731 | 35691 ft | 464 kts | 106° |
| 2026-05-05 23:29 | 52.25794 | 5.63823 | 35985 ft | 467 kts | 106° |
| 2026-05-05 23:29 | 52.25045 | 5.69049 | 36307 ft | 469 kts | 106° |
| 2026-05-05 23:29 | 52.24304 | 5.74187 | 36620 ft | 472 kts | 106° |
| 2026-05-05 23:29 | 52.23548 | 5.79418 | 36885 ft | 476 kts | 106° |
| 2026-05-05 23:30 | 52.22022 | 5.89943 | 36871 ft | 475 kts | 106° |
| 2026-05-05 23:30 | 52.21256 | 5.95185 | 37091 ft | 478 kts | 106° |
| 2026-05-05 23:30 | 52.20479 | 6.00485 | 37421 ft | 481 kts | 106° |
| 2026-05-05 23:31 | 52.19707 | 6.05739 | 37737 ft | 483 kts | 106° |
| 2026-05-05 23:31 | 52.18918 | 6.11095 | 38053 ft | 486 kts | 105° |
| 2026-05-05 23:31 | 52.18124 | 6.16467 | 38362 ft | 488 kts | 105° |
| 2026-05-05 23:31 | 52.17320 | 6.21881 | 38644 ft | 491 kts | 105° |
| 2026-05-05 23:32 | 52.16512 | 6.27301 | 38852 ft | 492 kts | 105° |
| 2026-05-05 23:32 | 52.15748 | 6.32420 | 38856 ft | 491 kts | 105° |
| 2026-05-05 23:32 | 52.14138 | 6.43140 | 38855 ft | 489 kts | 106° |
| 2026-05-05 23:33 | 52.12510 | 6.53902 | 38849 ft | 489 kts | 106° |
| 2026-05-05 23:33 | 52.10870 | 6.64675 | 38847 ft | 489 kts | 106° |
| 2026-05-05 23:34 | 52.09233 | 6.75356 | 38839 ft | 489 kts | 106° |
| 2026-05-05 23:34 | 52.07575 | 6.86105 | 38838 ft | 489 kts | 106° |
| 2026-05-05 23:35 | 52.05906 | 6.96848 | 38848 ft | 490 kts | 106° |
| 2026-05-05 23:35 | 52.04232 | 7.07560 | 38845 ft | 490 kts | 106° |
| 2026-05-05 23:36 | 52.02542 | 7.18297 | 38846 ft | 490 kts | 107° |
| 2026-05-05 23:36 | 52.00854 | 7.28952 | 38843 ft | 490 kts | 107° |
| 2026-05-05 23:37 | 51.99147 | 7.39663 | 38833 ft | 489 kts | 107° |
| 2026-05-05 23:37 | 51.97435 | 7.50332 | 38833 ft | 488 kts | 107° |
| 2026-05-05 23:38 | 51.95717 | 7.60977 | 38833 ft | 488 kts | 107° |
| 2026-05-05 23:38 | 51.93986 | 7.71627 | 38830 ft | 488 kts | 107° |
| 2026-05-05 23:39 | 51.92255 | 7.82215 | 38831 ft | 488 kts | 107° |
| 2026-05-05 23:39 | 51.90507 | 7.92838 | 38821 ft | 488 kts | 107° |
| 2026-05-05 23:40 | 51.88758 | 8.03402 | 38818 ft | 488 kts | 107° |
| 2026-05-05 23:40 | 51.86984 | 8.14048 | 38819 ft | 488 kts | 108° |
| 2026-05-05 23:41 | 51.85208 | 8.24646 | 38811 ft | 488 kts | 108° |
| 2026-05-05 23:41 | 51.83485 | 8.34865 | 38810 ft | 489 kts | 108° |
| 2026-05-05 23:42 | 51.81685 | 8.45471 | 38802 ft | 489 kts | 108° |
| 2026-05-05 23:42 | 51.79873 | 8.56090 | 38801 ft | 489 kts | 108° |
| 2026-05-05 23:43 | 51.78097 | 8.66432 | 38803 ft | 489 kts | 108° |
| 2026-05-05 23:43 | 51.76266 | 8.77036 | 38790 ft | 489 kts | 108° |
| 2026-05-05 23:44 | 51.74436 | 8.87557 | 38797 ft | 490 kts | 108° |
| 2026-05-05 23:44 | 51.72581 | 8.98171 | 38797 ft | 490 kts | 108° |
| 2026-05-05 23:45 | 51.70719 | 9.08759 | 38793 ft | 490 kts | 109° |
| 2026-05-05 23:45 | 51.68860 | 9.19270 | 38792 ft | 490 kts | 109° |
| 2026-05-05 23:46 | 51.66984 | 9.29813 | 38790 ft | 488 kts | 109° |
| 2026-05-05 23:46 | 51.65097 | 9.40353 | 38793 ft | 489 kts | 109° |
| 2026-05-05 23:47 | 51.63200 | 9.50891 | 38796 ft | 489 kts | 109° |
| 2026-05-05 23:47 | 51.61307 | 9.61347 | 38796 ft | 489 kts | 109° |
| 2026-05-05 23:48 | 51.59397 | 9.71836 | 38789 ft | 488 kts | 109° |
| 2026-05-05 23:48 | 51.57487 | 9.82261 | 38790 ft | 488 kts | 109° |
| 2026-05-05 23:49 | 51.55560 | 9.92724 | 38794 ft | 488 kts | 110° |
| 2026-05-05 23:49 | 51.53617 | 10.03210 | 38795 ft | 488 kts | 110° |
| 2026-05-05 23:50 | 51.51668 | 10.13674 | 38790 ft | 488 kts | 110° |
| 2026-05-05 23:50 | 51.49713 | 10.24112 | 38790 ft | 488 kts | 110° |
| 2026-05-05 23:51 | 51.47745 | 10.34555 | 38795 ft | 489 kts | 110° |
| 2026-05-05 23:51 | 51.45830 | 10.44668 | 38799 ft | 488 kts | 110° |
| 2026-05-05 23:52 | 51.44610 | 10.49712 | 38826 ft | 483 kts | 122° |
| 2026-05-05 23:52 | 51.42784 | 10.54196 | 38813 ft | 477 kts | 134° |
| 2026-05-05 23:52 | 51.40441 | 10.57892 | 38817 ft | 472 kts | 146° |
| 2026-05-05 23:52 | 51.37725 | 10.60685 | 38805 ft | 466 kts | 155° |
| 2026-05-05 23:53 | 51.31868 | 10.65126 | 38794 ft | 461 kts | 157° |
| 2026-05-05 23:53 | 51.26278 | 10.70096 | 38807 ft | 464 kts | 148° |
| 2026-05-05 23:54 | 51.21126 | 10.76267 | 38796 ft | 465 kts | 147° |
| 2026-05-05 23:54 | 51.15752 | 10.81960 | 38800 ft | 463 kts | 150° |
| 2026-05-05 23:55 | 51.10420 | 10.87801 | 38808 ft | 465 kts | 148° |
| 2026-05-05 23:55 | 51.05062 | 10.93595 | 38791 ft | 464 kts | 149° |
| 2026-05-05 23:56 | 50.99753 | 10.99319 | 38807 ft | 463 kts | 148° |
| 2026-05-05 23:56 | 50.94418 | 11.05074 | 38780 ft | 463 kts | 149° |
| 2026-05-05 23:57 | 50.89073 | 11.10802 | 38779 ft | 464 kts | 149° |
| 2026-05-05 23:57 | 50.83737 | 11.16522 | 38782 ft | 463 kts | 149° |
| 2026-05-05 23:58 | 50.78413 | 11.22200 | 38781 ft | 464 kts | 149° |
| 2026-05-05 23:58 | 50.73034 | 11.27930 | 38789 ft | 465 kts | 149° |
| 2026-05-05 23:59 | 50.67670 | 11.33624 | 38780 ft | 464 kts | 149° |
| 2026-05-05 23:59 | 50.62348 | 11.39257 | 38780 ft | 464 kts | 149° |
| 2026-05-06 00:00 | 50.56978 | 11.44926 | 38782 ft | 464 kts | 149° |
| 2026-05-06 00:00 | 50.51600 | 11.50588 | 38784 ft | 464 kts | 149° |
| 2026-05-06 00:01 | 50.46258 | 11.56196 | 38785 ft | 464 kts | 149° |
| 2026-05-06 00:01 | 50.40869 | 11.61838 | 38791 ft | 464 kts | 149° |
| 2026-05-06 00:02 | 50.35642 | 11.67296 | 38795 ft | 463 kts | 149° |
| 2026-05-06 00:02 | 50.30300 | 11.72856 | 38796 ft | 463 kts | 149° |
| 2026-05-06 00:03 | 50.24922 | 11.78441 | 38813 ft | 464 kts | 149° |
| 2026-05-06 00:03 | 50.19541 | 11.84012 | 38797 ft | 464 kts | 150° |
| 2026-05-06 00:04 | 50.14155 | 11.89574 | 38812 ft | 464 kts | 150° |
| 2026-05-06 00:04 | 50.08798 | 11.95091 | 38790 ft | 464 kts | 150° |
| 2026-05-06 00:05 | 50.00714 | 12.03388 | 38792 ft | 464 kts | 150° |
| 2026-05-06 00:06 | 49.95316 | 12.08910 | 38797 ft | 464 kts | 150° |
| 2026-05-06 00:06 | 49.89919 | 12.14414 | 38804 ft | 464 kts | 150° |
| 2026-05-06 00:07 | 49.84517 | 12.19909 | 38802 ft | 464 kts | 150° |
| 2026-05-06 00:07 | 49.79129 | 12.25375 | 38804 ft | 464 kts | 150° |
| 2026-05-06 00:08 | 49.73725 | 12.30844 | 38797 ft | 464 kts | 150° |
| 2026-05-06 00:08 | 49.69412 | 12.35836 | 38817 ft | 467 kts | 145° |
| 2026-05-06 00:09 | 49.64324 | 12.42081 | 38822 ft | 467 kts | 145° |
| 2026-05-06 00:09 | 49.59232 | 12.48328 | 38825 ft | 467 kts | 145° |
| 2026-05-06 00:10 | 49.54180 | 12.54504 | 38833 ft | 467 kts | 146° |
| 2026-05-06 00:10 | 49.49080 | 12.60722 | 38837 ft | 466 kts | 146° |
| 2026-05-06 00:11 | 49.43989 | 12.66913 | 38829 ft | 467 kts | 146° |
| 2026-05-06 00:11 | 49.38888 | 12.73099 | 38830 ft | 467 kts | 146° |
| 2026-05-06 00:12 | 49.34122 | 12.79834 | 38844 ft | 472 kts | 138° |
| 2026-05-06 00:12 | 49.29570 | 12.87125 | 38846 ft | 471 kts | 138° |
| 2026-05-06 00:13 | 49.25166 | 12.94152 | 38849 ft | 472 kts | 138° |
| 2026-05-06 00:13 | 49.20614 | 13.01400 | 38839 ft | 471 kts | 138° |
| 2026-05-06 00:14 | 49.16071 | 13.08610 | 38847 ft | 470 kts | 138° |
| 2026-05-06 00:14 | 49.11550 | 13.15766 | 38850 ft | 470 kts | 138° |
| 2026-05-06 00:15 | 49.06997 | 13.22951 | 38854 ft | 471 kts | 138° |
| 2026-05-06 00:15 | 49.02435 | 13.30133 | 38853 ft | 471 kts | 138° |
| 2026-05-06 00:16 | 48.97870 | 13.37297 | 38858 ft | 471 kts | 138° |
| 2026-05-06 00:16 | 48.93325 | 13.44411 | 38867 ft | 470 kts | 139° |
| 2026-05-06 00:17 | 48.88735 | 13.51574 | 38872 ft | 470 kts | 139° |
| 2026-05-06 00:17 | 48.84164 | 13.58690 | 38874 ft | 470 kts | 139° |
| 2026-05-06 00:18 | 48.79625 | 13.65734 | 38855 ft | 470 kts | 139° |
| 2026-05-06 00:18 | 48.75400 | 13.73396 | 38891 ft | 480 kts | 123° |
| 2026-05-06 00:19 | 48.72724 | 13.82683 | 38880 ft | 486 kts | 115° |
| 2026-05-06 00:19 | 48.70127 | 13.92094 | 38881 ft | 482 kts | 120° |
| 2026-05-06 00:20 | 48.67282 | 14.01294 | 38877 ft | 483 kts | 117° |
| 2026-05-06 00:20 | 48.64596 | 14.10615 | 38869 ft | 484 kts | 119° |
| 2026-05-06 00:21 | 48.61801 | 14.19818 | 38864 ft | 483 kts | 118° |
| 2026-05-06 00:21 | 48.59061 | 14.29083 | 38870 ft | 483 kts | 118° |
| 2026-05-06 00:22 | 48.56274 | 14.38300 | 38865 ft | 482 kts | 119° |
| 2026-05-06 00:22 | 48.53498 | 14.47543 | 38856 ft | 482 kts | 118° |
| 2026-05-06 00:23 | 48.50708 | 14.56748 | 38859 ft | 482 kts | 118° |
| 2026-05-06 00:23 | 48.47918 | 14.65944 | 38854 ft | 482 kts | 118° |
| 2026-05-06 00:24 | 48.45120 | 14.75118 | 38857 ft | 482 kts | 118° |
| 2026-05-06 00:24 | 48.42311 | 14.84298 | 38846 ft | 481 kts | 118° |
| 2026-05-06 00:25 | 48.39499 | 14.93456 | 38845 ft | 482 kts | 118° |
| 2026-05-06 00:25 | 48.36690 | 15.02568 | 38840 ft | 482 kts | 118° |
| 2026-05-06 00:26 | 48.33864 | 15.11703 | 38840 ft | 482 kts | 118° |
| 2026-05-06 00:26 | 48.31035 | 15.20814 | 38832 ft | 481 kts | 118° |
| 2026-05-06 00:27 | 48.28192 | 15.29937 | 38831 ft | 482 kts | 118° |
| 2026-05-06 00:27 | 48.25460 | 15.38675 | 38830 ft | 481 kts | 118° |
| 2026-05-06 00:28 | 48.22608 | 15.47761 | 38823 ft | 481 kts | 119° |
| 2026-05-06 00:28 | 48.19748 | 15.56839 | 38835 ft | 480 kts | 119° |
| 2026-05-06 00:29 | 48.16889 | 15.65882 | 38828 ft | 482 kts | 118° |
| 2026-05-06 00:29 | 48.14008 | 15.74966 | 38819 ft | 482 kts | 119° |
| 2026-05-06 00:30 | 48.11107 | 15.84072 | 38824 ft | 483 kts | 119° |
| 2026-05-06 00:30 | 48.08234 | 15.93065 | 38814 ft | 482 kts | 119° |
| 2026-05-06 00:31 | 48.05319 | 16.02150 | 38808 ft | 485 kts | 119° |
| 2026-05-06 00:31 | 48.02481 | 16.10974 | 38814 ft | 485 kts | 119° |
| 2026-05-06 00:32 | 47.99543 | 16.20066 | 38811 ft | 486 kts | 119° |
| 2026-05-06 00:32 | 47.96618 | 16.29092 | 38811 ft | 485 kts | 119° |
| 2026-05-06 00:33 | 47.93672 | 16.38147 | 38810 ft | 486 kts | 119° |
| 2026-05-06 00:33 | 47.90709 | 16.47223 | 38808 ft | 485 kts | 119° |
| 2026-05-06 00:34 | 47.87745 | 16.56269 | 38813 ft | 485 kts | 119° |
| 2026-05-06 00:34 | 47.84796 | 16.65241 | 38813 ft | 484 kts | 119° |
| 2026-05-06 00:35 | 47.81828 | 16.74236 | 38815 ft | 484 kts | 119° |
| 2026-05-06 00:35 | 47.78843 | 16.83254 | 38820 ft | 484 kts | 119° |
| 2026-05-06 00:36 | 47.75871 | 16.92196 | 38819 ft | 484 kts | 119° |
| 2026-05-06 00:36 | 47.72876 | 17.01181 | 38818 ft | 484 kts | 119° |
| 2026-05-06 00:37 | 47.69879 | 17.10156 | 38834 ft | 487 kts | 119° |
| 2026-05-06 00:37 | 47.66909 | 17.19126 | 38838 ft | 485 kts | 119° |
| 2026-05-06 00:38 | 47.64000 | 17.27818 | 38851 ft | 483 kts | 119° |
| 2026-05-06 00:38 | 47.61013 | 17.36745 | 38863 ft | 483 kts | 119° |
| 2026-05-06 00:39 | 47.58014 | 17.45658 | 38862 ft | 485 kts | 119° |
| 2026-05-06 00:39 | 47.54994 | 17.54621 | 38868 ft | 486 kts | 119° |
| 2026-05-06 00:40 | 47.51979 | 17.63523 | 38854 ft | 486 kts | 119° |
| 2026-05-06 00:40 | 47.48944 | 17.72462 | 38854 ft | 486 kts | 119° |
| 2026-05-06 00:41 | 47.45978 | 17.81163 | 38858 ft | 488 kts | 119° |
| 2026-05-06 00:41 | 47.42930 | 17.90081 | 38865 ft | 489 kts | 119° |
| 2026-05-06 00:42 | 47.39844 | 17.99072 | 38880 ft | 488 kts | 119° |
| 2026-05-06 00:42 | 47.36851 | 18.07767 | 38888 ft | 489 kts | 119° |
| 2026-05-06 00:43 | 47.33763 | 18.16703 | 38887 ft | 491 kts | 118° |
| 2026-05-06 00:43 | 47.30663 | 18.25653 | 38893 ft | 491 kts | 118° |
| 2026-05-06 00:44 | 47.27552 | 18.34594 | 38899 ft | 491 kts | 118° |
| 2026-05-06 00:44 | 47.24424 | 18.43558 | 38897 ft | 491 kts | 119° |
| 2026-05-06 00:45 | 47.21307 | 18.52456 | 38907 ft | 495 kts | 118° |
| 2026-05-06 00:45 | 47.18147 | 18.61454 | 38907 ft | 494 kts | 119° |
| 2026-05-06 00:46 | 47.15086 | 18.70134 | 38914 ft | 494 kts | 119° |
| 2026-05-06 00:46 | 47.11908 | 18.79117 | 38920 ft | 494 kts | 119° |
| 2026-05-06 00:47 | 47.08731 | 18.88066 | 38920 ft | 497 kts | 118° |
| 2026-05-06 00:47 | 47.05535 | 18.97042 | 38928 ft | 496 kts | 119° |
| 2026-05-06 00:48 | 47.02333 | 19.06002 | 38929 ft | 495 kts | 119° |
| 2026-05-06 00:48 | 46.99146 | 19.14892 | 38931 ft | 495 kts | 119° |
| 2026-05-06 00:49 | 46.95924 | 19.23843 | 38940 ft | 498 kts | 118° |
| 2026-05-06 00:49 | 46.92767 | 19.32593 | 38941 ft | 498 kts | 119° |
| 2026-05-06 00:50 | 46.89522 | 19.41551 | 38941 ft | 498 kts | 119° |
| 2026-05-06 00:50 | 46.86289 | 19.50449 | 38944 ft | 498 kts | 119° |
| 2026-05-06 00:51 | 46.83034 | 19.59374 | 38946 ft | 498 kts | 119° |
| 2026-05-06 00:51 | 46.79762 | 19.68319 | 38954 ft | 498 kts | 119° |
| 2026-05-06 00:52 | 46.76489 | 19.77237 | 38941 ft | 498 kts | 119° |
| 2026-05-06 00:52 | 46.73219 | 19.86115 | 38941 ft | 498 kts | 119° |
| 2026-05-06 00:53 | 46.69948 | 19.94967 | 38947 ft | 498 kts | 119° |
| 2026-05-06 00:53 | 46.66647 | 20.03872 | 38946 ft | 499 kts | 119° |
| 2026-05-06 00:54 | 46.63344 | 20.12753 | 38943 ft | 500 kts | 119° |
| 2026-05-06 00:54 | 46.60037 | 20.21614 | 38938 ft | 500 kts | 119° |
| 2026-05-06 00:55 | 46.56709 | 20.30502 | 38940 ft | 500 kts | 119° |
| 2026-05-06 00:55 | 46.53367 | 20.39401 | 38942 ft | 500 kts | 119° |
| 2026-05-06 00:56 | 46.50025 | 20.48267 | 38943 ft | 500 kts | 119° |
| 2026-05-06 00:56 | 46.46781 | 20.56848 | 38947 ft | 500 kts | 119° |
| 2026-05-06 00:57 | 46.43989 | 20.64211 | 38950 ft | 500 kts | 119° |
| 2026-05-06 00:57 | 46.40078 | 20.74489 | 38953 ft | 500 kts | 119° |
| 2026-05-06 00:58 | 46.37280 | 20.81820 | 38953 ft | 500 kts | 119° |
| 2026-05-06 00:58 | 46.33903 | 20.90641 | 38958 ft | 500 kts | 119° |
| 2026-05-06 00:59 | 46.30522 | 20.99447 | 38964 ft | 499 kts | 119° |
| 2026-05-06 00:59 | 46.27160 | 21.08172 | 38966 ft | 500 kts | 119° |
| 2026-05-06 01:00 | 46.23740 | 21.16947 | 38963 ft | 500 kts | 120° |
| 2026-05-06 01:00 | 46.20378 | 21.25436 | 38960 ft | 502 kts | 120° |
| 2026-05-06 01:01 | 46.16933 | 21.34190 | 38962 ft | 501 kts | 120° |
| 2026-05-06 01:01 | 46.13467 | 21.42916 | 38962 ft | 501 kts | 120° |
| 2026-05-06 01:02 | 46.10023 | 21.51590 | 38969 ft | 501 kts | 120° |
| 2026-05-06 01:02 | 46.06545 | 21.60305 | 38976 ft | 502 kts | 120° |
| 2026-05-06 01:03 | 46.03063 | 21.69012 | 38976 ft | 502 kts | 120° |
| 2026-05-06 01:03 | 45.99571 | 21.77713 | 38980 ft | 502 kts | 120° |
| 2026-05-06 01:04 | 45.96074 | 21.86398 | 38984 ft | 502 kts | 120° |
| 2026-05-06 01:04 | 45.92569 | 21.95078 | 38986 ft | 502 kts | 120° |
| 2026-05-06 01:05 | 45.89079 | 22.03693 | 38987 ft | 502 kts | 120° |
| 2026-05-06 01:05 | 45.85688 | 22.12037 | 38991 ft | 502 kts | 120° |
| 2026-05-06 01:06 | 45.82185 | 22.20630 | 38997 ft | 501 kts | 120° |
| 2026-05-06 01:06 | 45.78660 | 22.29252 | 38993 ft | 503 kts | 120° |
| 2026-05-06 01:07 | 45.75109 | 22.37909 | 38996 ft | 502 kts | 120° |
| 2026-05-06 01:07 | 45.71559 | 22.46538 | 38996 ft | 502 kts | 120° |
| 2026-05-06 01:08 | 45.68034 | 22.55078 | 39003 ft | 501 kts | 120° |
| 2026-05-06 01:08 | 45.64472 | 22.63685 | 39005 ft | 502 kts | 120° |
| 2026-05-06 01:09 | 45.60910 | 22.72261 | 39007 ft | 501 kts | 120° |
| 2026-05-06 01:09 | 45.57343 | 22.80825 | 39014 ft | 501 kts | 120° |
| 2026-05-06 01:10 | 45.53775 | 22.89365 | 39026 ft | 499 kts | 120° |
| 2026-05-06 01:10 | 45.50244 | 22.97791 | 39021 ft | 497 kts | 120° |
| 2026-05-06 01:11 | 45.46687 | 23.06254 | 39031 ft | 497 kts | 120° |
| 2026-05-06 01:11 | 45.43129 | 23.14693 | 39039 ft | 496 kts | 120° |
| 2026-05-06 01:12 | 45.39641 | 23.22942 | 39034 ft | 496 kts | 120° |
| 2026-05-06 01:12 | 45.36072 | 23.31357 | 39032 ft | 497 kts | 121° |
| 2026-05-06 01:13 | 45.32514 | 23.39722 | 39035 ft | 498 kts | 121° |
| 2026-05-06 01:13 | 45.28922 | 23.48140 | 39037 ft | 498 kts | 121° |
| 2026-05-06 01:14 | 45.23526 | 23.60742 | 39027 ft | 498 kts | 121° |
| 2026-05-06 01:14 | 45.19915 | 23.69143 | 39025 ft | 498 kts | 121° |
| 2026-05-06 01:15 | 45.16322 | 23.77476 | 39031 ft | 497 kts | 121° |
| 2026-05-06 01:15 | 45.12704 | 23.85843 | 39031 ft | 497 kts | 121° |
| 2026-05-06 01:16 | 45.09079 | 23.94203 | 39031 ft | 497 kts | 121° |
| 2026-05-06 01:16 | 45.05452 | 24.02541 | 39032 ft | 498 kts | 121° |
| 2026-05-06 01:17 | 45.01836 | 24.10831 | 39027 ft | 496 kts | 121° |
| 2026-05-06 01:17 | 44.98203 | 24.19135 | 39026 ft | 496 kts | 121° |
| 2026-05-06 01:18 | 44.94565 | 24.27425 | 39028 ft | 496 kts | 121° |
| 2026-05-06 01:18 | 44.91005 | 24.35516 | 39027 ft | 498 kts | 121° |
| 2026-05-06 01:19 | 44.87363 | 24.43769 | 39027 ft | 497 kts | 121° |
| 2026-05-06 01:19 | 44.83706 | 24.52031 | 39020 ft | 497 kts | 121° |
| 2026-05-06 01:20 | 44.80032 | 24.60308 | 39024 ft | 497 kts | 121° |
| 2026-05-06 01:20 | 44.76347 | 24.68587 | 39018 ft | 499 kts | 121° |
| 2026-05-06 01:21 | 44.72745 | 24.76653 | 39019 ft | 499 kts | 121° |
| 2026-05-06 01:21 | 44.69038 | 24.84934 | 39017 ft | 500 kts | 121° |
| 2026-05-06 01:22 | 44.65326 | 24.93201 | 39027 ft | 500 kts | 121° |
| 2026-05-06 01:22 | 44.61609 | 25.01454 | 39020 ft | 500 kts | 121° |
| 2026-05-06 01:23 | 44.57904 | 25.09659 | 39017 ft | 500 kts | 121° |
| 2026-05-06 01:23 | 44.54172 | 25.17899 | 39018 ft | 500 kts | 121° |
| 2026-05-06 01:24 | 44.50424 | 25.26150 | 38997 ft | 499 kts | 121° |
| 2026-05-06 01:24 | 44.46704 | 25.34318 | 39007 ft | 500 kts | 121° |
| 2026-05-06 01:25 | 44.42957 | 25.42520 | 39007 ft | 500 kts | 121° |
| 2026-05-06 01:25 | 44.39197 | 25.50728 | 39007 ft | 500 kts | 121° |
| 2026-05-06 01:26 | 44.35445 | 25.58893 | 39011 ft | 499 kts | 121° |
| 2026-05-06 01:26 | 44.31688 | 25.67049 | 39007 ft | 499 kts | 121° |
| 2026-05-06 01:27 | 44.27943 | 25.75154 | 39005 ft | 499 kts | 121° |
| 2026-05-06 01:27 | 44.24176 | 25.83286 | 39009 ft | 498 kts | 122° |
| 2026-05-06 01:28 | 44.20405 | 25.91402 | 39001 ft | 498 kts | 122° |
| 2026-05-06 01:28 | 44.16623 | 25.99520 | 39001 ft | 498 kts | 122° |
| 2026-05-06 01:29 | 44.12844 | 26.07608 | 39000 ft | 499 kts | 122° |
| 2026-05-06 01:29 | 44.09078 | 26.15644 | 38996 ft | 498 kts | 122° |
| 2026-05-06 01:30 | 44.05284 | 26.23721 | 39008 ft | 499 kts | 122° |
| 2026-05-06 01:30 | 44.01562 | 26.31621 | 39017 ft | 499 kts | 122° |
| 2026-05-06 01:31 | 43.97742 | 26.39707 | 39017 ft | 499 kts | 122° |
| 2026-05-06 01:31 | 43.93928 | 26.47759 | 39011 ft | 499 kts | 122° |
| 2026-05-06 01:32 | 43.90120 | 26.55775 | 39016 ft | 499 kts | 122° |
| 2026-05-06 01:32 | 43.86288 | 26.63818 | 39023 ft | 499 kts | 122° |
| 2026-05-06 01:33 | 43.82458 | 26.71837 | 39013 ft | 498 kts | 122° |
| 2026-05-06 01:33 | 43.78618 | 26.79854 | 39019 ft | 498 kts | 122° |
| 2026-05-06 01:34 | 43.74810 | 26.87783 | 39026 ft | 498 kts | 122° |
| 2026-05-06 01:34 | 43.70963 | 26.95771 | 39035 ft | 497 kts | 122° |
| 2026-05-06 01:35 | 43.67120 | 27.03730 | 39037 ft | 497 kts | 122° |
| 2026-05-06 01:35 | 43.63289 | 27.11641 | 39035 ft | 498 kts | 122° |
| 2026-05-06 01:36 | 43.59432 | 27.19584 | 39043 ft | 498 kts | 122° |
| 2026-05-06 01:36 | 43.55643 | 27.27367 | 39044 ft | 497 kts | 122° |
| 2026-05-06 01:37 | 43.51784 | 27.35272 | 39043 ft | 497 kts | 123° |
| 2026-05-06 01:37 | 43.47922 | 27.43163 | 39045 ft | 497 kts | 123° |
| 2026-05-06 01:38 | 43.44077 | 27.50999 | 39045 ft | 495 kts | 123° |
| 2026-05-06 01:38 | 43.40217 | 27.58842 | 39289 ft | 497 kts | 123° |
| 2026-05-06 01:39 | 43.38277 | 27.62779 | 39584 ft | 498 kts | 123° |
| 2026-05-06 01:39 | 43.36324 | 27.66734 | 39871 ft | 500 kts | 123° |
| 2026-05-06 01:39 | 43.34368 | 27.70689 | 40173 ft | 501 kts | 123° |
| 2026-05-06 01:39 | 43.32407 | 27.74650 | 40468 ft | 502 kts | 123° |
| 2026-05-06 01:40 | 43.30435 | 27.78629 | 40773 ft | 503 kts | 123° |
| 2026-05-06 01:40 | 43.28456 | 27.82616 | 41032 ft | 502 kts | 123° |
| 2026-05-06 01:40 | 43.24527 | 27.90515 | 41042 ft | 499 kts | 123° |
| 2026-05-06 01:41 | 43.20617 | 27.98357 | 41039 ft | 498 kts | 123° |
| 2026-05-06 01:41 | 43.16714 | 28.06160 | 41050 ft | 498 kts | 123° |
| 2026-05-06 01:42 | 43.12794 | 28.13980 | 41052 ft | 498 kts | 123° |
| 2026-05-06 01:42 | 43.08862 | 28.21803 | 41051 ft | 498 kts | 123° |
| 2026-05-06 01:43 | 43.04922 | 28.29619 | 41061 ft | 499 kts | 123° |
| 2026-05-06 01:43 | 43.01001 | 28.37380 | 41058 ft | 499 kts | 123° |
| 2026-05-06 01:44 | 42.97044 | 28.45189 | 41055 ft | 499 kts | 123° |
| 2026-05-06 01:44 | 42.93087 | 28.52979 | 41064 ft | 499 kts | 123° |
| 2026-05-06 01:45 | 42.89126 | 28.60757 | 41066 ft | 499 kts | 123° |
| 2026-05-06 01:45 | 42.85179 | 28.68486 | 41066 ft | 499 kts | 124° |
| 2026-05-06 01:46 | 42.81871 | 28.74948 | 41063 ft | 499 kts | 124° |
| 2026-05-06 01:46 | 42.77881 | 28.82725 | 41051 ft | 499 kts | 124° |
| 2026-05-06 01:47 | 42.73893 | 28.90477 | 41054 ft | 500 kts | 124° |
| 2026-05-06 01:47 | 42.69989 | 28.98047 | 41057 ft | 500 kts | 124° |
| 2026-05-06 01:48 | 42.65986 | 29.05789 | 41055 ft | 500 kts | 124° |
| 2026-05-06 01:48 | 42.61994 | 29.13489 | 41057 ft | 500 kts | 124° |
| 2026-05-06 01:49 | 42.57982 | 29.21207 | 41057 ft | 500 kts | 124° |
| 2026-05-06 01:49 | 42.53954 | 29.28938 | 41066 ft | 500 kts | 124° |
| 2026-05-06 01:50 | 42.49950 | 29.36602 | 41071 ft | 501 kts | 124° |
| 2026-05-06 01:50 | 42.45921 | 29.44294 | 41070 ft | 501 kts | 124° |